<?xml version="1.0" encoding="UTF-8" standalone="no" ?>
<gpx xmlns="http://www.topografix.com/GPX/1/1" xmlns:xsi="http://www.w3.org/2001/XMLSchema-instance" xsi:schemaLocation="http://www.topografix.com/GPX/1/1 http://www.topografix.com/GPX/1/1/gpx.xsd" version="1.1" creator="VisuGPX - https://www.visugpx.com">
  <metadata>
    <name>velo de route 2019 - lutz route de la zorn</name>
    <desc><![CDATA[Belles routes de campagne]]></desc>
  </metadata>
  <trk>
    <name><![CDATA[10601287-lutz route de la zorn]]></name>
    <extensions>
      <line xmlns="http://www.topografix.com/GPX/gpx_style/0/2">
        <color>0000FF</color>
        <width>4</width>
      </line>
    </extensions>
    <trkseg>
      <trkpt lat="48.51969" lon="7.2843">
        <ele>289</ele>
        <time>2022-06-09T14:17:05Z</time>
      </trkpt>
      <trkpt lat="48.5196" lon="7.28503">
        <ele>286</ele>
        <time>2022-06-09T14:17:14Z</time>
      </trkpt>
      <trkpt lat="48.51965" lon="7.28554">
        <ele>283</ele>
        <time>2022-06-09T14:17:20Z</time>
      </trkpt>
      <trkpt lat="48.51978" lon="7.28643">
        <ele>279</ele>
        <time>2022-06-09T14:17:31Z</time>
      </trkpt>
      <trkpt lat="48.51986" lon="7.28752">
        <ele>275</ele>
        <time>2022-06-09T14:17:43Z</time>
      </trkpt>
      <trkpt lat="48.51972" lon="7.28794">
        <ele>272</ele>
        <time>2022-06-09T14:17:49Z</time>
      </trkpt>
      <trkpt lat="48.51821" lon="7.28681">
        <ele>276</ele>
        <time>2022-06-09T14:18:19Z</time>
      </trkpt>
      <trkpt lat="48.5161" lon="7.28347">
        <ele>281</ele>
        <time>2022-06-09T14:19:13Z</time>
      </trkpt>
      <trkpt lat="48.51415" lon="7.28207">
        <ele>276</ele>
        <time>2022-06-09T14:19:52Z</time>
      </trkpt>
      <trkpt lat="48.51334" lon="7.281">
        <ele>272</ele>
        <time>2022-06-09T14:20:11Z</time>
      </trkpt>
      <trkpt lat="48.51273" lon="7.27939">
        <ele>277</ele>
        <time>2022-06-09T14:20:33Z</time>
      </trkpt>
      <trkpt lat="48.51116" lon="7.27662">
        <ele>275</ele>
        <time>2022-06-09T14:21:16Z</time>
      </trkpt>
      <trkpt lat="48.51001" lon="7.27326">
        <ele>273</ele>
        <time>2022-06-09T14:22:00Z</time>
      </trkpt>
      <trkpt lat="48.51015" lon="7.2701">
        <ele>274</ele>
        <time>2022-06-09T14:22:38Z</time>
      </trkpt>
      <trkpt lat="48.50873" lon="7.26915">
        <ele>269</ele>
        <time>2022-06-09T14:23:05Z</time>
      </trkpt>
      <trkpt lat="48.50837" lon="7.26783">
        <ele>273</ele>
        <time>2022-06-09T14:23:22Z</time>
      </trkpt>
      <trkpt lat="48.50815" lon="7.26607">
        <ele>276</ele>
        <time>2022-06-09T14:23:43Z</time>
      </trkpt>
      <trkpt lat="48.50842" lon="7.26283">
        <ele>280</ele>
        <time>2022-06-09T14:24:22Z</time>
      </trkpt>
      <trkpt lat="48.50812" lon="7.26164">
        <ele>281</ele>
        <time>2022-06-09T14:24:37Z</time>
      </trkpt>
      <trkpt lat="48.50643" lon="7.25779">
        <ele>288</ele>
        <time>2022-06-09T14:25:31Z</time>
      </trkpt>
      <trkpt lat="48.50416" lon="7.25513">
        <ele>288</ele>
        <time>2022-06-09T14:26:22Z</time>
      </trkpt>
      <trkpt lat="48.50335" lon="7.25475">
        <ele>287</ele>
        <time>2022-06-09T14:26:37Z</time>
      </trkpt>
      <trkpt lat="48.50102" lon="7.25248">
        <ele>283</ele>
        <time>2022-06-09T14:27:27Z</time>
      </trkpt>
      <trkpt lat="48.49951" lon="7.25199">
        <ele>284</ele>
        <time>2022-06-09T14:27:54Z</time>
      </trkpt>
      <trkpt lat="48.49814" lon="7.2499">
        <ele>297</ele>
        <time>2022-06-09T14:28:29Z</time>
      </trkpt>
      <trkpt lat="48.49546" lon="7.24761">
        <ele>295</ele>
        <time>2022-06-09T14:29:24Z</time>
      </trkpt>
      <trkpt lat="48.49442" lon="7.24628">
        <ele>296</ele>
        <time>2022-06-09T14:29:48Z</time>
      </trkpt>
      <trkpt lat="48.49275" lon="7.24454">
        <ele>297</ele>
        <time>2022-06-09T14:30:24Z</time>
      </trkpt>
      <trkpt lat="48.49155" lon="7.24403">
        <ele>290</ele>
        <time>2022-06-09T14:30:46Z</time>
      </trkpt>
      <trkpt lat="48.49092" lon="7.24283">
        <ele>291</ele>
        <time>2022-06-09T14:31:04Z</time>
      </trkpt>
      <trkpt lat="48.48888" lon="7.23747">
        <ele>294</ele>
        <time>2022-06-09T14:32:17Z</time>
      </trkpt>
      <trkpt lat="48.48846" lon="7.23605">
        <ele>297</ele>
        <time>2022-06-09T14:32:36Z</time>
      </trkpt>
      <trkpt lat="48.48741" lon="7.23138">
        <ele>305</ele>
        <time>2022-06-09T14:33:34Z</time>
      </trkpt>
      <trkpt lat="48.48683" lon="7.22637">
        <ele>301</ele>
        <time>2022-06-09T14:34:34Z</time>
      </trkpt>
      <trkpt lat="48.48636" lon="7.22508">
        <ele>302</ele>
        <time>2022-06-09T14:34:51Z</time>
      </trkpt>
      <trkpt lat="48.48167" lon="7.22114">
        <ele>304</ele>
        <time>2022-06-09T14:36:27Z</time>
      </trkpt>
      <trkpt lat="48.48153" lon="7.22061">
        <ele>305</ele>
        <time>2022-06-09T14:36:33Z</time>
      </trkpt>
      <trkpt lat="48.48191" lon="7.21951">
        <ele>308</ele>
        <time>2022-06-09T14:36:48Z</time>
      </trkpt>
      <trkpt lat="48.48172" lon="7.2176">
        <ele>311</ele>
        <time>2022-06-09T14:37:11Z</time>
      </trkpt>
      <trkpt lat="48.47795" lon="7.21446">
        <ele>314</ele>
        <time>2022-06-09T14:38:27Z</time>
      </trkpt>
      <trkpt lat="48.47721" lon="7.21492">
        <ele>314</ele>
        <time>2022-06-09T14:38:42Z</time>
      </trkpt>
      <trkpt lat="48.47628" lon="7.21448">
        <ele>317</ele>
        <time>2022-06-09T14:38:59Z</time>
      </trkpt>
      <trkpt lat="48.47612" lon="7.21356">
        <ele>321</ele>
        <time>2022-06-09T14:39:10Z</time>
      </trkpt>
      <trkpt lat="48.47661" lon="7.21254">
        <ele>324</ele>
        <time>2022-06-09T14:39:25Z</time>
      </trkpt>
      <trkpt lat="48.4787" lon="7.21231">
        <ele>319</ele>
        <time>2022-06-09T14:40:02Z</time>
      </trkpt>
      <trkpt lat="48.47913" lon="7.21158">
        <ele>319</ele>
        <time>2022-06-09T14:40:14Z</time>
      </trkpt>
      <trkpt lat="48.48081" lon="7.21035">
        <ele>320</ele>
        <time>2022-06-09T14:40:47Z</time>
      </trkpt>
      <trkpt lat="48.48144" lon="7.20813">
        <ele>329</ele>
        <time>2022-06-09T14:41:16Z</time>
      </trkpt>
      <trkpt lat="48.4824" lon="7.20443">
        <ele>335</ele>
        <time>2022-06-09T14:42:02Z</time>
      </trkpt>
      <trkpt lat="48.48296" lon="7.20053">
        <ele>341</ele>
        <time>2022-06-09T14:42:49Z</time>
      </trkpt>
      <trkpt lat="48.48274" lon="7.19813">
        <ele>355</ele>
        <time>2022-06-09T14:43:18Z</time>
      </trkpt>
      <trkpt lat="48.48258" lon="7.19426">
        <ele>354</ele>
        <time>2022-06-09T14:44:04Z</time>
      </trkpt>
      <trkpt lat="48.48336" lon="7.19218">
        <ele>368</ele>
        <time>2022-06-09T14:44:32Z</time>
      </trkpt>
      <trkpt lat="48.48401" lon="7.18578">
        <ele>366</ele>
        <time>2022-06-09T14:45:48Z</time>
      </trkpt>
      <trkpt lat="48.48433" lon="7.17904">
        <ele>385</ele>
        <time>2022-06-09T14:47:08Z</time>
      </trkpt>
      <trkpt lat="48.48433" lon="7.1772">
        <ele>396</ele>
        <time>2022-06-09T14:47:30Z</time>
      </trkpt>
      <trkpt lat="48.48363" lon="7.17622">
        <ele>396</ele>
        <time>2022-06-09T14:47:47Z</time>
      </trkpt>
      <trkpt lat="48.48325" lon="7.17514">
        <ele>393</ele>
        <time>2022-06-09T14:48:01Z</time>
      </trkpt>
      <trkpt lat="48.48468" lon="7.17218">
        <ele>417</ele>
        <time>2022-06-09T14:48:44Z</time>
      </trkpt>
      <trkpt lat="48.48477" lon="7.16924">
        <ele>418</ele>
        <time>2022-06-09T14:49:19Z</time>
      </trkpt>
      <trkpt lat="48.48535" lon="7.16756">
        <ele>425</ele>
        <time>2022-06-09T14:49:41Z</time>
      </trkpt>
      <trkpt lat="48.48654" lon="7.16534">
        <ele>435</ele>
        <time>2022-06-09T14:50:15Z</time>
      </trkpt>
      <trkpt lat="48.48823" lon="7.16355">
        <ele>448</ele>
        <time>2022-06-09T14:50:52Z</time>
      </trkpt>
      <trkpt lat="48.4899" lon="7.16229">
        <ele>453</ele>
        <time>2022-06-09T14:51:25Z</time>
      </trkpt>
      <trkpt lat="48.49236" lon="7.16245">
        <ele>469</ele>
        <time>2022-06-09T14:52:09Z</time>
      </trkpt>
      <trkpt lat="48.4954" lon="7.16993">
        <ele>542</ele>
        <time>2022-06-09T14:53:52Z</time>
      </trkpt>
      <trkpt lat="48.49836" lon="7.17243">
        <ele>566</ele>
        <time>2022-06-09T14:54:53Z</time>
      </trkpt>
      <trkpt lat="48.49853" lon="7.17192">
        <ele>565</ele>
        <time>2022-06-09T14:54:59Z</time>
      </trkpt>
      <trkpt lat="48.4965" lon="7.16857">
        <ele>568</ele>
        <time>2022-06-09T14:55:53Z</time>
      </trkpt>
      <trkpt lat="48.49598" lon="7.16434">
        <ele>581</ele>
        <time>2022-06-09T14:56:44Z</time>
      </trkpt>
      <trkpt lat="48.49688" lon="7.16113">
        <ele>592</ele>
        <time>2022-06-09T14:57:25Z</time>
      </trkpt>
      <trkpt lat="48.49999" lon="7.16034">
        <ele>621</ele>
        <time>2022-06-09T14:58:21Z</time>
      </trkpt>
      <trkpt lat="48.501" lon="7.16166">
        <ele>643</ele>
        <time>2022-06-09T14:58:45Z</time>
      </trkpt>
      <trkpt lat="48.50213" lon="7.16194">
        <ele>659</ele>
        <time>2022-06-09T14:59:05Z</time>
      </trkpt>
      <trkpt lat="48.50163" lon="7.15944">
        <ele>647</ele>
        <time>2022-06-09T14:59:36Z</time>
      </trkpt>
      <trkpt lat="48.50234" lon="7.15748">
        <ele>661</ele>
        <time>2022-06-09T15:00:02Z</time>
      </trkpt>
      <trkpt lat="48.50359" lon="7.15686">
        <ele>680</ele>
        <time>2022-06-09T15:00:25Z</time>
      </trkpt>
      <trkpt lat="48.50367" lon="7.15594">
        <ele>677</ele>
        <time>2022-06-09T15:00:36Z</time>
      </trkpt>
      <trkpt lat="48.50343" lon="7.15312">
        <ele>679</ele>
        <time>2022-06-09T15:01:10Z</time>
      </trkpt>
      <trkpt lat="48.50462" lon="7.14883">
        <ele>703</ele>
        <time>2022-06-09T15:02:05Z</time>
      </trkpt>
      <trkpt lat="48.50721" lon="7.14689">
        <ele>726</ele>
        <time>2022-06-09T15:02:56Z</time>
      </trkpt>
      <trkpt lat="48.50727" lon="7.14617">
        <ele>730</ele>
        <time>2022-06-09T15:03:05Z</time>
      </trkpt>
      <trkpt lat="48.50773" lon="7.14584">
        <ele>737</ele>
        <time>2022-06-09T15:03:14Z</time>
      </trkpt>
      <trkpt lat="48.50783" lon="7.14691">
        <ele>733</ele>
        <time>2022-06-09T15:03:27Z</time>
      </trkpt>
      <trkpt lat="48.5081" lon="7.14923">
        <ele>740</ele>
        <time>2022-06-09T15:03:54Z</time>
      </trkpt>
      <trkpt lat="48.50875" lon="7.15151">
        <ele>756</ele>
        <time>2022-06-09T15:04:24Z</time>
      </trkpt>
      <trkpt lat="48.5106" lon="7.15322">
        <ele>765</ele>
        <time>2022-06-09T15:05:02Z</time>
      </trkpt>
      <trkpt lat="48.51094" lon="7.15424">
        <ele>766</ele>
        <time>2022-06-09T15:05:16Z</time>
      </trkpt>
      <trkpt lat="48.51182" lon="7.15434">
        <ele>763</ele>
        <time>2022-06-09T15:05:31Z</time>
      </trkpt>
      <trkpt lat="48.51236" lon="7.15526">
        <ele>767</ele>
        <time>2022-06-09T15:05:46Z</time>
      </trkpt>
      <trkpt lat="48.51358" lon="7.15643">
        <ele>772</ele>
        <time>2022-06-09T15:06:12Z</time>
      </trkpt>
      <trkpt lat="48.51668" lon="7.1589">
        <ele>760</ele>
        <time>2022-06-09T15:07:14Z</time>
      </trkpt>
      <trkpt lat="48.51784" lon="7.1611">
        <ele>752</ele>
        <time>2022-06-09T15:07:47Z</time>
      </trkpt>
      <trkpt lat="48.51846" lon="7.16368">
        <ele>756</ele>
        <time>2022-06-09T15:08:19Z</time>
      </trkpt>
      <trkpt lat="48.51803" lon="7.16659">
        <ele>776</ele>
        <time>2022-06-09T15:08:55Z</time>
      </trkpt>
      <trkpt lat="48.51768" lon="7.16769">
        <ele>790</ele>
        <time>2022-06-09T15:09:09Z</time>
      </trkpt>
      <trkpt lat="48.51777" lon="7.16809">
        <ele>794</ele>
        <time>2022-06-09T15:09:14Z</time>
      </trkpt>
      <trkpt lat="48.52061" lon="7.16814">
        <ele>787</ele>
        <time>2022-06-09T15:10:04Z</time>
      </trkpt>
      <trkpt lat="48.52251" lon="7.16655">
        <ele>790</ele>
        <time>2022-06-09T15:10:43Z</time>
      </trkpt>
      <trkpt lat="48.52288" lon="7.16592">
        <ele>786</ele>
        <time>2022-06-09T15:10:53Z</time>
      </trkpt>
      <trkpt lat="48.52394" lon="7.16574">
        <ele>787</ele>
        <time>2022-06-09T15:11:12Z</time>
      </trkpt>
      <trkpt lat="48.52631" lon="7.16641">
        <ele>781</ele>
        <time>2022-06-09T15:11:55Z</time>
      </trkpt>
      <trkpt lat="48.52806" lon="7.16817">
        <ele>784</ele>
        <time>2022-06-09T15:12:32Z</time>
      </trkpt>
      <trkpt lat="48.52879" lon="7.16865">
        <ele>784</ele>
        <time>2022-06-09T15:12:46Z</time>
      </trkpt>
      <trkpt lat="48.52986" lon="7.16904">
        <ele>798</ele>
        <time>2022-06-09T15:13:06Z</time>
      </trkpt>
      <trkpt lat="48.5321" lon="7.17169">
        <ele>805</ele>
        <time>2022-06-09T15:13:57Z</time>
      </trkpt>
      <trkpt lat="48.53303" lon="7.17223">
        <ele>802</ele>
        <time>2022-06-09T15:14:14Z</time>
      </trkpt>
      <trkpt lat="48.53584" lon="7.17511">
        <ele>791</ele>
        <time>2022-06-09T15:15:15Z</time>
      </trkpt>
      <trkpt lat="48.53487" lon="7.17355">
        <ele>786</ele>
        <time>2022-06-09T15:15:40Z</time>
      </trkpt>
      <trkpt lat="48.53396" lon="7.17136">
        <ele>777</ele>
        <time>2022-06-09T15:16:11Z</time>
      </trkpt>
      <trkpt lat="48.5341" lon="7.16965">
        <ele>774</ele>
        <time>2022-06-09T15:16:31Z</time>
      </trkpt>
      <trkpt lat="48.5346" lon="7.16886">
        <ele>773</ele>
        <time>2022-06-09T15:16:44Z</time>
      </trkpt>
      <trkpt lat="48.5355" lon="7.16858">
        <ele>765</ele>
        <time>2022-06-09T15:17:00Z</time>
      </trkpt>
      <trkpt lat="48.53733" lon="7.16933">
        <ele>740</ele>
        <time>2022-06-09T15:17:34Z</time>
      </trkpt>
      <trkpt lat="48.53826" lon="7.16775">
        <ele>758</ele>
        <time>2022-06-09T15:17:59Z</time>
      </trkpt>
      <trkpt lat="48.53907" lon="7.16737">
        <ele>765</ele>
        <time>2022-06-09T15:18:14Z</time>
      </trkpt>
      <trkpt lat="48.5399" lon="7.16836">
        <ele>747</ele>
        <time>2022-06-09T15:18:33Z</time>
      </trkpt>
      <trkpt lat="48.54115" lon="7.16951">
        <ele>730</ele>
        <time>2022-06-09T15:18:59Z</time>
      </trkpt>
      <trkpt lat="48.54173" lon="7.16893">
        <ele>733</ele>
        <time>2022-06-09T15:19:11Z</time>
      </trkpt>
      <trkpt lat="48.5421" lon="7.16773">
        <ele>733</ele>
        <time>2022-06-09T15:19:27Z</time>
      </trkpt>
      <trkpt lat="48.54241" lon="7.1671">
        <ele>728</ele>
        <time>2022-06-09T15:19:36Z</time>
      </trkpt>
      <trkpt lat="48.54441" lon="7.16827">
        <ele>709</ele>
        <time>2022-06-09T15:20:14Z</time>
      </trkpt>
      <trkpt lat="48.5453" lon="7.16834">
        <ele>705</ele>
        <time>2022-06-09T15:20:30Z</time>
      </trkpt>
      <trkpt lat="48.54564" lon="7.16922">
        <ele>700</ele>
        <time>2022-06-09T15:20:42Z</time>
      </trkpt>
      <trkpt lat="48.5457" lon="7.17083">
        <ele>689</ele>
        <time>2022-06-09T15:21:01Z</time>
      </trkpt>
      <trkpt lat="48.5454" lon="7.17171">
        <ele>677</ele>
        <time>2022-06-09T15:21:13Z</time>
      </trkpt>
      <trkpt lat="48.54416" lon="7.16972">
        <ele>675</ele>
        <time>2022-06-09T15:21:45Z</time>
      </trkpt>
      <trkpt lat="48.54308" lon="7.1686">
        <ele>694</ele>
        <time>2022-06-09T15:22:08Z</time>
      </trkpt>
      <trkpt lat="48.54211" lon="7.17088">
        <ele>674</ele>
        <time>2022-06-09T15:22:40Z</time>
      </trkpt>
      <trkpt lat="48.53971" lon="7.17159">
        <ele>674</ele>
        <time>2022-06-09T15:23:23Z</time>
      </trkpt>
      <trkpt lat="48.53907" lon="7.17226">
        <ele>662</ele>
        <time>2022-06-09T15:23:37Z</time>
      </trkpt>
      <trkpt lat="48.53916" lon="7.17276">
        <ele>654</ele>
        <time>2022-06-09T15:23:43Z</time>
      </trkpt>
      <trkpt lat="48.54182" lon="7.17427">
        <ele>619</ele>
        <time>2022-06-09T15:24:34Z</time>
      </trkpt>
      <trkpt lat="48.5434" lon="7.17622">
        <ele>600</ele>
        <time>2022-06-09T15:25:10Z</time>
      </trkpt>
      <trkpt lat="48.54345" lon="7.17696">
        <ele>603</ele>
        <time>2022-06-09T15:25:19Z</time>
      </trkpt>
      <trkpt lat="48.54238" lon="7.17999">
        <ele>616</ele>
        <time>2022-06-09T15:26:00Z</time>
      </trkpt>
      <trkpt lat="48.54264" lon="7.18021">
        <ele>618</ele>
        <time>2022-06-09T15:26:05Z</time>
      </trkpt>
      <trkpt lat="48.54415" lon="7.17951">
        <ele>608</ele>
        <time>2022-06-09T15:26:33Z</time>
      </trkpt>
      <trkpt lat="48.54539" lon="7.17952">
        <ele>596</ele>
        <time>2022-06-09T15:26:55Z</time>
      </trkpt>
      <trkpt lat="48.54623" lon="7.18112">
        <ele>599</ele>
        <time>2022-06-09T15:27:19Z</time>
      </trkpt>
      <trkpt lat="48.54638" lon="7.17983">
        <ele>584</ele>
        <time>2022-06-09T15:27:34Z</time>
      </trkpt>
      <trkpt lat="48.54688" lon="7.17846">
        <ele>563</ele>
        <time>2022-06-09T15:27:53Z</time>
      </trkpt>
      <trkpt lat="48.5471" lon="7.17807">
        <ele>559</ele>
        <time>2022-06-09T15:27:59Z</time>
      </trkpt>
      <trkpt lat="48.54762" lon="7.17795">
        <ele>562</ele>
        <time>2022-06-09T15:28:08Z</time>
      </trkpt>
      <trkpt lat="48.54786" lon="7.17819">
        <ele>570</ele>
        <time>2022-06-09T15:28:13Z</time>
      </trkpt>
      <trkpt lat="48.54817" lon="7.17813">
        <ele>576</ele>
        <time>2022-06-09T15:28:19Z</time>
      </trkpt>
      <trkpt lat="48.54803" lon="7.17643">
        <ele>560</ele>
        <time>2022-06-09T15:28:39Z</time>
      </trkpt>
      <trkpt lat="48.55007" lon="7.17188">
        <ele>535</ele>
        <time>2022-06-09T15:29:44Z</time>
      </trkpt>
      <trkpt lat="48.55056" lon="7.17145">
        <ele>535</ele>
        <time>2022-06-09T15:29:54Z</time>
      </trkpt>
      <trkpt lat="48.55362" lon="7.16972">
        <ele>526</ele>
        <time>2022-06-09T15:30:52Z</time>
      </trkpt>
      <trkpt lat="48.55404" lon="7.16989">
        <ele>526</ele>
        <time>2022-06-09T15:31:00Z</time>
      </trkpt>
      <trkpt lat="48.55467" lon="7.17081">
        <ele>538</ele>
        <time>2022-06-09T15:31:15Z</time>
      </trkpt>
      <trkpt lat="48.55479" lon="7.16905">
        <ele>518</ele>
        <time>2022-06-09T15:31:36Z</time>
      </trkpt>
      <trkpt lat="48.55591" lon="7.16842">
        <ele>522</ele>
        <time>2022-06-09T15:31:58Z</time>
      </trkpt>
      <trkpt lat="48.55638" lon="7.16661">
        <ele>501</ele>
        <time>2022-06-09T15:32:20Z</time>
      </trkpt>
      <trkpt lat="48.55726" lon="7.1655">
        <ele>498</ele>
        <time>2022-06-09T15:32:41Z</time>
      </trkpt>
      <trkpt lat="48.55866" lon="7.16297">
        <ele>480</ele>
        <time>2022-06-09T15:33:20Z</time>
      </trkpt>
      <trkpt lat="48.56079" lon="7.16153">
        <ele>468</ele>
        <time>2022-06-09T15:34:01Z</time>
      </trkpt>
      <trkpt lat="48.56217" lon="7.16022">
        <ele>468</ele>
        <time>2022-06-09T15:34:30Z</time>
      </trkpt>
      <trkpt lat="48.56373" lon="7.15723">
        <ele>464</ele>
        <time>2022-06-09T15:35:15Z</time>
      </trkpt>
      <trkpt lat="48.56517" lon="7.15579">
        <ele>457</ele>
        <time>2022-06-09T15:35:46Z</time>
      </trkpt>
      <trkpt lat="48.56583" lon="7.15437">
        <ele>448</ele>
        <time>2022-06-09T15:36:06Z</time>
      </trkpt>
      <trkpt lat="48.56582" lon="7.15233">
        <ele>438</ele>
        <time>2022-06-09T15:36:30Z</time>
      </trkpt>
      <trkpt lat="48.56797" lon="7.14796">
        <ele>438</ele>
        <time>2022-06-09T15:37:34Z</time>
      </trkpt>
      <trkpt lat="48.56957" lon="7.14564">
        <ele>445</ele>
        <time>2022-06-09T15:38:14Z</time>
      </trkpt>
      <trkpt lat="48.57002" lon="7.14434">
        <ele>436</ele>
        <time>2022-06-09T15:38:31Z</time>
      </trkpt>
      <trkpt lat="48.57039" lon="7.14345">
        <ele>437</ele>
        <time>2022-06-09T15:38:43Z</time>
      </trkpt>
      <trkpt lat="48.57122" lon="7.1425">
        <ele>430</ele>
        <time>2022-06-09T15:39:02Z</time>
      </trkpt>
      <trkpt lat="48.57183" lon="7.1424">
        <ele>430</ele>
        <time>2022-06-09T15:39:13Z</time>
      </trkpt>
      <trkpt lat="48.57284" lon="7.14161">
        <ele>421</ele>
        <time>2022-06-09T15:39:33Z</time>
      </trkpt>
      <trkpt lat="48.57351" lon="7.14161">
        <ele>422</ele>
        <time>2022-06-09T15:39:45Z</time>
      </trkpt>
      <trkpt lat="48.57454" lon="7.14112">
        <ele>421</ele>
        <time>2022-06-09T15:40:04Z</time>
      </trkpt>
      <trkpt lat="48.57621" lon="7.141">
        <ele>416</ele>
        <time>2022-06-09T15:40:34Z</time>
      </trkpt>
      <trkpt lat="48.57684" lon="7.14126">
        <ele>419</ele>
        <time>2022-06-09T15:40:46Z</time>
      </trkpt>
      <trkpt lat="48.5778" lon="7.14089">
        <ele>409</ele>
        <time>2022-06-09T15:41:03Z</time>
      </trkpt>
      <trkpt lat="48.5782" lon="7.13997">
        <ele>406</ele>
        <time>2022-06-09T15:41:16Z</time>
      </trkpt>
      <trkpt lat="48.57871" lon="7.13954">
        <ele>409</ele>
        <time>2022-06-09T15:41:27Z</time>
      </trkpt>
      <trkpt lat="48.58013" lon="7.13969">
        <ele>406</ele>
        <time>2022-06-09T15:41:52Z</time>
      </trkpt>
      <trkpt lat="48.58044" lon="7.13888">
        <ele>408</ele>
        <time>2022-06-09T15:42:03Z</time>
      </trkpt>
      <trkpt lat="48.58048" lon="7.1379">
        <ele>408</ele>
        <time>2022-06-09T15:42:14Z</time>
      </trkpt>
      <trkpt lat="48.58063" lon="7.13746">
        <ele>404</ele>
        <time>2022-06-09T15:42:20Z</time>
      </trkpt>
      <trkpt lat="48.58124" lon="7.13704">
        <ele>401</ele>
        <time>2022-06-09T15:42:32Z</time>
      </trkpt>
      <trkpt lat="48.58181" lon="7.13678">
        <ele>398</ele>
        <time>2022-06-09T15:42:43Z</time>
      </trkpt>
      <trkpt lat="48.58183" lon="7.13634">
        <ele>395</ele>
        <time>2022-06-09T15:42:48Z</time>
      </trkpt>
      <trkpt lat="48.58146" lon="7.13533">
        <ele>402</ele>
        <time>2022-06-09T15:43:02Z</time>
      </trkpt>
      <trkpt lat="48.58195" lon="7.1349">
        <ele>395</ele>
        <time>2022-06-09T15:43:12Z</time>
      </trkpt>
      <trkpt lat="48.58362" lon="7.13461">
        <ele>392</ele>
        <time>2022-06-09T15:43:42Z</time>
      </trkpt>
      <trkpt lat="48.58392" lon="7.13411">
        <ele>392</ele>
        <time>2022-06-09T15:43:50Z</time>
      </trkpt>
      <trkpt lat="48.58404" lon="7.13226">
        <ele>396</ele>
        <time>2022-06-09T15:44:11Z</time>
      </trkpt>
      <trkpt lat="48.58448" lon="7.13171">
        <ele>392</ele>
        <time>2022-06-09T15:44:22Z</time>
      </trkpt>
      <trkpt lat="48.58524" lon="7.13181">
        <ele>384</ele>
        <time>2022-06-09T15:44:35Z</time>
      </trkpt>
      <trkpt lat="48.5857" lon="7.13138">
        <ele>383</ele>
        <time>2022-06-09T15:44:45Z</time>
      </trkpt>
      <trkpt lat="48.58598" lon="7.12923">
        <ele>384</ele>
        <time>2022-06-09T15:45:11Z</time>
      </trkpt>
      <trkpt lat="48.58674" lon="7.12812">
        <ele>376</ele>
        <time>2022-06-09T15:45:29Z</time>
      </trkpt>
      <trkpt lat="48.58688" lon="7.12747">
        <ele>377</ele>
        <time>2022-06-09T15:45:37Z</time>
      </trkpt>
      <trkpt lat="48.58682" lon="7.12622">
        <ele>372</ele>
        <time>2022-06-09T15:45:52Z</time>
      </trkpt>
      <trkpt lat="48.58704" lon="7.12598">
        <ele>375</ele>
        <time>2022-06-09T15:45:57Z</time>
      </trkpt>
      <trkpt lat="48.58772" lon="7.1264">
        <ele>374</ele>
        <time>2022-06-09T15:46:10Z</time>
      </trkpt>
      <trkpt lat="48.5891" lon="7.12608">
        <ele>373</ele>
        <time>2022-06-09T15:46:35Z</time>
      </trkpt>
      <trkpt lat="48.58989" lon="7.12504">
        <ele>369</ele>
        <time>2022-06-09T15:46:54Z</time>
      </trkpt>
      <trkpt lat="48.59053" lon="7.12432">
        <ele>365</ele>
        <time>2022-06-09T15:47:08Z</time>
      </trkpt>
      <trkpt lat="48.59164" lon="7.12426">
        <ele>359</ele>
        <time>2022-06-09T15:47:27Z</time>
      </trkpt>
      <trkpt lat="48.59274" lon="7.12332">
        <ele>356</ele>
        <time>2022-06-09T15:47:50Z</time>
      </trkpt>
      <trkpt lat="48.59415" lon="7.12252">
        <ele>354</ele>
        <time>2022-06-09T15:48:17Z</time>
      </trkpt>
      <trkpt lat="48.59569" lon="7.12252">
        <ele>352</ele>
        <time>2022-06-09T15:48:44Z</time>
      </trkpt>
      <trkpt lat="48.5974" lon="7.12202">
        <ele>352</ele>
        <time>2022-06-09T15:49:15Z</time>
      </trkpt>
      <trkpt lat="48.59896" lon="7.12217">
        <ele>349</ele>
        <time>2022-06-09T15:49:43Z</time>
      </trkpt>
      <trkpt lat="48.59998" lon="7.12263">
        <ele>350</ele>
        <time>2022-06-09T15:50:02Z</time>
      </trkpt>
      <trkpt lat="48.60159" lon="7.12384">
        <ele>354</ele>
        <time>2022-06-09T15:50:34Z</time>
      </trkpt>
      <trkpt lat="48.60208" lon="7.12554">
        <ele>352</ele>
        <time>2022-06-09T15:50:56Z</time>
      </trkpt>
      <trkpt lat="48.60163" lon="7.12712">
        <ele>352</ele>
        <time>2022-06-09T15:51:16Z</time>
      </trkpt>
      <trkpt lat="48.60204" lon="7.12777">
        <ele>354</ele>
        <time>2022-06-09T15:51:27Z</time>
      </trkpt>
      <trkpt lat="48.60268" lon="7.12798">
        <ele>356</ele>
        <time>2022-06-09T15:51:38Z</time>
      </trkpt>
      <trkpt lat="48.60397" lon="7.12701">
        <ele>350</ele>
        <time>2022-06-09T15:52:04Z</time>
      </trkpt>
      <trkpt lat="48.60467" lon="7.12674">
        <ele>346</ele>
        <time>2022-06-09T15:52:17Z</time>
      </trkpt>
      <trkpt lat="48.60573" lon="7.12698">
        <ele>345</ele>
        <time>2022-06-09T15:52:36Z</time>
      </trkpt>
      <trkpt lat="48.60662" lon="7.12764">
        <ele>338</ele>
        <time>2022-06-09T15:52:53Z</time>
      </trkpt>
      <trkpt lat="48.60855" lon="7.12835">
        <ele>350</ele>
        <time>2022-06-09T15:53:29Z</time>
      </trkpt>
      <trkpt lat="48.60975" lon="7.12781">
        <ele>340</ele>
        <time>2022-06-09T15:53:51Z</time>
      </trkpt>
      <trkpt lat="48.61096" lon="7.12891">
        <ele>341</ele>
        <time>2022-06-09T15:54:16Z</time>
      </trkpt>
      <trkpt lat="48.61348" lon="7.12863">
        <ele>333</ele>
        <time>2022-06-09T15:55:01Z</time>
      </trkpt>
      <trkpt lat="48.61464" lon="7.12959">
        <ele>339</ele>
        <time>2022-06-09T15:55:25Z</time>
      </trkpt>
      <trkpt lat="48.61583" lon="7.13021">
        <ele>343</ele>
        <time>2022-06-09T15:55:47Z</time>
      </trkpt>
      <trkpt lat="48.61679" lon="7.13003">
        <ele>339</ele>
        <time>2022-06-09T15:56:04Z</time>
      </trkpt>
      <trkpt lat="48.61716" lon="7.1298">
        <ele>340</ele>
        <time>2022-06-09T15:56:11Z</time>
      </trkpt>
      <trkpt lat="48.61753" lon="7.12872">
        <ele>329</ele>
        <time>2022-06-09T15:56:26Z</time>
      </trkpt>
      <trkpt lat="48.61797" lon="7.12818">
        <ele>325</ele>
        <time>2022-06-09T15:56:36Z</time>
      </trkpt>
      <trkpt lat="48.61844" lon="7.12849">
        <ele>327</ele>
        <time>2022-06-09T15:56:45Z</time>
      </trkpt>
      <trkpt lat="48.61922" lon="7.1294">
        <ele>328</ele>
        <time>2022-06-09T15:57:02Z</time>
      </trkpt>
      <trkpt lat="48.62021" lon="7.12967">
        <ele>329</ele>
        <time>2022-06-09T15:57:20Z</time>
      </trkpt>
      <trkpt lat="48.62087" lon="7.12956">
        <ele>324</ele>
        <time>2022-06-09T15:57:32Z</time>
      </trkpt>
      <trkpt lat="48.62157" lon="7.12905">
        <ele>317</ele>
        <time>2022-06-09T15:57:46Z</time>
      </trkpt>
      <trkpt lat="48.62184" lon="7.12895">
        <ele>315</ele>
        <time>2022-06-09T15:57:51Z</time>
      </trkpt>
      <trkpt lat="48.62217" lon="7.12898">
        <ele>312</ele>
        <time>2022-06-09T15:57:57Z</time>
      </trkpt>
      <trkpt lat="48.62354" lon="7.13028">
        <ele>311</ele>
        <time>2022-06-09T15:58:26Z</time>
      </trkpt>
      <trkpt lat="48.62425" lon="7.13069">
        <ele>320</ele>
        <time>2022-06-09T15:58:39Z</time>
      </trkpt>
      <trkpt lat="48.62475" lon="7.13074">
        <ele>323</ele>
        <time>2022-06-09T15:58:48Z</time>
      </trkpt>
      <trkpt lat="48.62531" lon="7.13038">
        <ele>324</ele>
        <time>2022-06-09T15:58:59Z</time>
      </trkpt>
      <trkpt lat="48.62559" lon="7.13001">
        <ele>325</ele>
        <time>2022-06-09T15:59:05Z</time>
      </trkpt>
      <trkpt lat="48.62576" lon="7.12923">
        <ele>320</ele>
        <time>2022-06-09T15:59:15Z</time>
      </trkpt>
      <trkpt lat="48.62576" lon="7.12824">
        <ele>320</ele>
        <time>2022-06-09T15:59:27Z</time>
      </trkpt>
      <trkpt lat="48.62563" lon="7.12647">
        <ele>320</ele>
        <time>2022-06-09T15:59:48Z</time>
      </trkpt>
      <trkpt lat="48.6257" lon="7.12566">
        <ele>318</ele>
        <time>2022-06-09T15:59:57Z</time>
      </trkpt>
      <trkpt lat="48.62592" lon="7.12528">
        <ele>319</ele>
        <time>2022-06-09T16:00:03Z</time>
      </trkpt>
      <trkpt lat="48.62614" lon="7.12513">
        <ele>319</ele>
        <time>2022-06-09T16:00:07Z</time>
      </trkpt>
      <trkpt lat="48.62702" lon="7.12503">
        <ele>318</ele>
        <time>2022-06-09T16:00:23Z</time>
      </trkpt>
      <trkpt lat="48.62771" lon="7.12472">
        <ele>315</ele>
        <time>2022-06-09T16:00:36Z</time>
      </trkpt>
      <trkpt lat="48.62822" lon="7.12413">
        <ele>314</ele>
        <time>2022-06-09T16:00:47Z</time>
      </trkpt>
      <trkpt lat="48.62848" lon="7.12329">
        <ele>318</ele>
        <time>2022-06-09T16:00:58Z</time>
      </trkpt>
      <trkpt lat="48.62847" lon="7.12097">
        <ele>312</ele>
        <time>2022-06-09T16:01:26Z</time>
      </trkpt>
      <trkpt lat="48.62881" lon="7.12008">
        <ele>315</ele>
        <time>2022-06-09T16:01:38Z</time>
      </trkpt>
      <trkpt lat="48.62909" lon="7.11947">
        <ele>311</ele>
        <time>2022-06-09T16:01:46Z</time>
      </trkpt>
      <trkpt lat="48.62955" lon="7.1191">
        <ele>306</ele>
        <time>2022-06-09T16:01:56Z</time>
      </trkpt>
      <trkpt lat="48.62995" lon="7.1186">
        <ele>303</ele>
        <time>2022-06-09T16:02:05Z</time>
      </trkpt>
      <trkpt lat="48.63023" lon="7.11754">
        <ele>306</ele>
        <time>2022-06-09T16:02:18Z</time>
      </trkpt>
      <trkpt lat="48.63102" lon="7.11841">
        <ele>312</ele>
        <time>2022-06-09T16:02:36Z</time>
      </trkpt>
      <trkpt lat="48.63289" lon="7.11955">
        <ele>330</ele>
        <time>2022-06-09T16:03:12Z</time>
      </trkpt>
      <trkpt lat="48.63389" lon="7.12068">
        <ele>329</ele>
        <time>2022-06-09T16:03:34Z</time>
      </trkpt>
      <trkpt lat="48.63525" lon="7.12372">
        <ele>325</ele>
        <time>2022-06-09T16:04:17Z</time>
      </trkpt>
      <trkpt lat="48.63572" lon="7.12598">
        <ele>324</ele>
        <time>2022-06-09T16:04:45Z</time>
      </trkpt>
      <trkpt lat="48.63625" lon="7.12927">
        <ele>323</ele>
        <time>2022-06-09T16:05:25Z</time>
      </trkpt>
      <trkpt lat="48.63679" lon="7.13049">
        <ele>324</ele>
        <time>2022-06-09T16:05:42Z</time>
      </trkpt>
      <trkpt lat="48.63754" lon="7.13124">
        <ele>326</ele>
        <time>2022-06-09T16:05:58Z</time>
      </trkpt>
      <trkpt lat="48.63772" lon="7.13156">
        <ele>327</ele>
        <time>2022-06-09T16:06:03Z</time>
      </trkpt>
      <trkpt lat="48.63852" lon="7.13218">
        <ele>331</ele>
        <time>2022-06-09T16:06:19Z</time>
      </trkpt>
      <trkpt lat="48.63926" lon="7.13352">
        <ele>335</ele>
        <time>2022-06-09T16:06:39Z</time>
      </trkpt>
      <trkpt lat="48.64036" lon="7.13472">
        <ele>343</ele>
        <time>2022-06-09T16:07:04Z</time>
      </trkpt>
      <trkpt lat="48.64103" lon="7.13657">
        <ele>360</ele>
        <time>2022-06-09T16:07:28Z</time>
      </trkpt>
      <trkpt lat="48.64133" lon="7.13698">
        <ele>365</ele>
        <time>2022-06-09T16:07:36Z</time>
      </trkpt>
      <trkpt lat="48.64169" lon="7.13716">
        <ele>369</ele>
        <time>2022-06-09T16:07:42Z</time>
      </trkpt>
      <trkpt lat="48.64208" lon="7.1369">
        <ele>378</ele>
        <time>2022-06-09T16:07:50Z</time>
      </trkpt>
      <trkpt lat="48.64256" lon="7.13684">
        <ele>387</ele>
        <time>2022-06-09T16:07:58Z</time>
      </trkpt>
      <trkpt lat="48.64322" lon="7.13737">
        <ele>391</ele>
        <time>2022-06-09T16:08:12Z</time>
      </trkpt>
      <trkpt lat="48.64343" lon="7.13792">
        <ele>392</ele>
        <time>2022-06-09T16:08:19Z</time>
      </trkpt>
      <trkpt lat="48.64313" lon="7.14021">
        <ele>405</ele>
        <time>2022-06-09T16:08:47Z</time>
      </trkpt>
      <trkpt lat="48.64227" lon="7.14124">
        <ele>417</ele>
        <time>2022-06-09T16:09:06Z</time>
      </trkpt>
      <trkpt lat="48.64122" lon="7.14115">
        <ele>416</ele>
        <time>2022-06-09T16:09:25Z</time>
      </trkpt>
      <trkpt lat="48.64074" lon="7.14164">
        <ele>420</ele>
        <time>2022-06-09T16:09:35Z</time>
      </trkpt>
      <trkpt lat="48.63991" lon="7.14472">
        <ele>431</ele>
        <time>2022-06-09T16:10:14Z</time>
      </trkpt>
      <trkpt lat="48.63916" lon="7.14684">
        <ele>441</ele>
        <time>2022-06-09T16:10:43Z</time>
      </trkpt>
      <trkpt lat="48.63902" lon="7.14863">
        <ele>446</ele>
        <time>2022-06-09T16:11:04Z</time>
      </trkpt>
      <trkpt lat="48.63981" lon="7.15024">
        <ele>429</ele>
        <time>2022-06-09T16:11:27Z</time>
      </trkpt>
      <trkpt lat="48.64053" lon="7.15118">
        <ele>428</ele>
        <time>2022-06-09T16:11:44Z</time>
      </trkpt>
      <trkpt lat="48.64233" lon="7.15195">
        <ele>406</ele>
        <time>2022-06-09T16:12:17Z</time>
      </trkpt>
      <trkpt lat="48.6435" lon="7.15198">
        <ele>392</ele>
        <time>2022-06-09T16:12:38Z</time>
      </trkpt>
      <trkpt lat="48.64416" lon="7.15241">
        <ele>384</ele>
        <time>2022-06-09T16:12:51Z</time>
      </trkpt>
      <trkpt lat="48.64465" lon="7.15312">
        <ele>374</ele>
        <time>2022-06-09T16:13:03Z</time>
      </trkpt>
      <trkpt lat="48.6447" lon="7.15388">
        <ele>370</ele>
        <time>2022-06-09T16:13:12Z</time>
      </trkpt>
      <trkpt lat="48.64393" lon="7.15463">
        <ele>375</ele>
        <time>2022-06-09T16:13:28Z</time>
      </trkpt>
      <trkpt lat="48.64399" lon="7.15497">
        <ele>366</ele>
        <time>2022-06-09T16:13:33Z</time>
      </trkpt>
      <trkpt lat="48.6443" lon="7.15496">
        <ele>361</ele>
        <time>2022-06-09T16:13:38Z</time>
      </trkpt>
      <trkpt lat="48.64586" lon="7.15423">
        <ele>348</ele>
        <time>2022-06-09T16:14:07Z</time>
      </trkpt>
      <trkpt lat="48.6478" lon="7.15458">
        <ele>333</ele>
        <time>2022-06-09T16:14:42Z</time>
      </trkpt>
      <trkpt lat="48.64796" lon="7.15468">
        <ele>334</ele>
        <time>2022-06-09T16:14:45Z</time>
      </trkpt>
      <trkpt lat="48.64382" lon="7.15693">
        <ele>343</ele>
        <time>2022-06-09T16:16:03Z</time>
      </trkpt>
      <trkpt lat="48.64173" lon="7.15821">
        <ele>346</ele>
        <time>2022-06-09T16:16:43Z</time>
      </trkpt>
      <trkpt lat="48.64093" lon="7.15837">
        <ele>353</ele>
        <time>2022-06-09T16:16:58Z</time>
      </trkpt>
      <trkpt lat="48.64022" lon="7.15889">
        <ele>351</ele>
        <time>2022-06-09T16:17:12Z</time>
      </trkpt>
      <trkpt lat="48.63864" lon="7.15786">
        <ele>357</ele>
        <time>2022-06-09T16:17:42Z</time>
      </trkpt>
      <trkpt lat="48.63805" lon="7.15852">
        <ele>360</ele>
        <time>2022-06-09T16:17:55Z</time>
      </trkpt>
      <trkpt lat="48.63722" lon="7.15896">
        <ele>364</ele>
        <time>2022-06-09T16:18:11Z</time>
      </trkpt>
      <trkpt lat="48.63673" lon="7.16013">
        <ele>355</ele>
        <time>2022-06-09T16:18:27Z</time>
      </trkpt>
      <trkpt lat="48.63662" lon="7.16111">
        <ele>368</ele>
        <time>2022-06-09T16:18:39Z</time>
      </trkpt>
      <trkpt lat="48.63615" lon="7.16188">
        <ele>379</ele>
        <time>2022-06-09T16:18:51Z</time>
      </trkpt>
      <trkpt lat="48.63478" lon="7.16374">
        <ele>390</ele>
        <time>2022-06-09T16:19:24Z</time>
      </trkpt>
      <trkpt lat="48.63446" lon="7.16509">
        <ele>405</ele>
        <time>2022-06-09T16:19:41Z</time>
      </trkpt>
      <trkpt lat="48.63349" lon="7.16582">
        <ele>399</ele>
        <time>2022-06-09T16:20:00Z</time>
      </trkpt>
      <trkpt lat="48.63293" lon="7.16651">
        <ele>404</ele>
        <time>2022-06-09T16:20:13Z</time>
      </trkpt>
      <trkpt lat="48.63268" lon="7.1672">
        <ele>409</ele>
        <time>2022-06-09T16:20:22Z</time>
      </trkpt>
      <trkpt lat="48.63264" lon="7.16807">
        <ele>420</ele>
        <time>2022-06-09T16:20:33Z</time>
      </trkpt>
      <trkpt lat="48.63281" lon="7.16923">
        <ele>439</ele>
        <time>2022-06-09T16:20:47Z</time>
      </trkpt>
      <trkpt lat="48.63253" lon="7.1696">
        <ele>438</ele>
        <time>2022-06-09T16:20:53Z</time>
      </trkpt>
      <trkpt lat="48.63207" lon="7.16909">
        <ele>431</ele>
        <time>2022-06-09T16:21:03Z</time>
      </trkpt>
      <trkpt lat="48.63164" lon="7.16873">
        <ele>430</ele>
        <time>2022-06-09T16:21:12Z</time>
      </trkpt>
      <trkpt lat="48.63061" lon="7.16856">
        <ele>436</ele>
        <time>2022-06-09T16:21:31Z</time>
      </trkpt>
      <trkpt lat="48.6295" lon="7.16933">
        <ele>440</ele>
        <time>2022-06-09T16:21:52Z</time>
      </trkpt>
      <trkpt lat="48.62921" lon="7.17105">
        <ele>452</ele>
        <time>2022-06-09T16:22:13Z</time>
      </trkpt>
      <trkpt lat="48.62878" lon="7.17159">
        <ele>452</ele>
        <time>2022-06-09T16:22:23Z</time>
      </trkpt>
      <trkpt lat="48.62878" lon="7.17214">
        <ele>458</ele>
        <time>2022-06-09T16:22:30Z</time>
      </trkpt>
      <trkpt lat="48.62803" lon="7.17343">
        <ele>462</ele>
        <time>2022-06-09T16:22:50Z</time>
      </trkpt>
      <trkpt lat="48.6277" lon="7.17507">
        <ele>477</ele>
        <time>2022-06-09T16:23:10Z</time>
      </trkpt>
      <trkpt lat="48.62719" lon="7.17662">
        <ele>485</ele>
        <time>2022-06-09T16:23:30Z</time>
      </trkpt>
      <trkpt lat="48.62635" lon="7.17761">
        <ele>492</ele>
        <time>2022-06-09T16:23:49Z</time>
      </trkpt>
      <trkpt lat="48.62556" lon="7.17824">
        <ele>496</ele>
        <time>2022-06-09T16:24:05Z</time>
      </trkpt>
      <trkpt lat="48.6242" lon="7.17796">
        <ele>502</ele>
        <time>2022-06-09T16:24:30Z</time>
      </trkpt>
      <trkpt lat="48.62282" lon="7.17799">
        <ele>503</ele>
        <time>2022-06-09T16:24:54Z</time>
      </trkpt>
      <trkpt lat="48.62168" lon="7.17827">
        <ele>503</ele>
        <time>2022-06-09T16:25:15Z</time>
      </trkpt>
      <trkpt lat="48.6213" lon="7.17859">
        <ele>507</ele>
        <time>2022-06-09T16:25:22Z</time>
      </trkpt>
      <trkpt lat="48.62085" lon="7.17977">
        <ele>499</ele>
        <time>2022-06-09T16:25:38Z</time>
      </trkpt>
      <trkpt lat="48.62028" lon="7.18006">
        <ele>505</ele>
        <time>2022-06-09T16:25:49Z</time>
      </trkpt>
      <trkpt lat="48.61958" lon="7.17997">
        <ele>508</ele>
        <time>2022-06-09T16:26:02Z</time>
      </trkpt>
      <trkpt lat="48.61848" lon="7.17954">
        <ele>507</ele>
        <time>2022-06-09T16:26:22Z</time>
      </trkpt>
      <trkpt lat="48.61797" lon="7.17975">
        <ele>509</ele>
        <time>2022-06-09T16:26:31Z</time>
      </trkpt>
      <trkpt lat="48.61578" lon="7.1818">
        <ele>526</ele>
        <time>2022-06-09T16:27:17Z</time>
      </trkpt>
      <trkpt lat="48.61424" lon="7.18174">
        <ele>525</ele>
        <time>2022-06-09T16:27:44Z</time>
      </trkpt>
      <trkpt lat="48.61391" lon="7.18222">
        <ele>519</ele>
        <time>2022-06-09T16:27:53Z</time>
      </trkpt>
      <trkpt lat="48.61367" lon="7.18305">
        <ele>516</ele>
        <time>2022-06-09T16:28:03Z</time>
      </trkpt>
      <trkpt lat="48.61365" lon="7.18414">
        <ele>515</ele>
        <time>2022-06-09T16:28:16Z</time>
      </trkpt>
      <trkpt lat="48.6136" lon="7.18511">
        <ele>519</ele>
        <time>2022-06-09T16:28:28Z</time>
      </trkpt>
      <trkpt lat="48.61294" lon="7.18527">
        <ele>524</ele>
        <time>2022-06-09T16:28:39Z</time>
      </trkpt>
      <trkpt lat="48.61232" lon="7.18484">
        <ele>535</ele>
        <time>2022-06-09T16:28:52Z</time>
      </trkpt>
      <trkpt lat="48.61154" lon="7.18474">
        <ele>539</ele>
        <time>2022-06-09T16:29:05Z</time>
      </trkpt>
      <trkpt lat="48.61041" lon="7.18487">
        <ele>534</ele>
        <time>2022-06-09T16:29:26Z</time>
      </trkpt>
      <trkpt lat="48.60987" lon="7.18463">
        <ele>533</ele>
        <time>2022-06-09T16:29:36Z</time>
      </trkpt>
      <trkpt lat="48.60857" lon="7.1833">
        <ele>530</ele>
        <time>2022-06-09T16:30:04Z</time>
      </trkpt>
      <trkpt lat="48.60815" lon="7.18331">
        <ele>527</ele>
        <time>2022-06-09T16:30:11Z</time>
      </trkpt>
      <trkpt lat="48.60773" lon="7.18379">
        <ele>528</ele>
        <time>2022-06-09T16:30:20Z</time>
      </trkpt>
      <trkpt lat="48.60722" lon="7.18533">
        <ele>535</ele>
        <time>2022-06-09T16:30:41Z</time>
      </trkpt>
      <trkpt lat="48.60698" lon="7.18754">
        <ele>542</ele>
        <time>2022-06-09T16:31:07Z</time>
      </trkpt>
      <trkpt lat="48.60664" lon="7.18769">
        <ele>547</ele>
        <time>2022-06-09T16:31:13Z</time>
      </trkpt>
      <trkpt lat="48.60604" lon="7.18764">
        <ele>551</ele>
        <time>2022-06-09T16:31:24Z</time>
      </trkpt>
      <trkpt lat="48.60475" lon="7.18699">
        <ele>556</ele>
        <time>2022-06-09T16:31:48Z</time>
      </trkpt>
      <trkpt lat="48.60426" lon="7.1869">
        <ele>560</ele>
        <time>2022-06-09T16:31:57Z</time>
      </trkpt>
      <trkpt lat="48.60384" lon="7.18711">
        <ele>560</ele>
        <time>2022-06-09T16:32:05Z</time>
      </trkpt>
      <trkpt lat="48.60356" lon="7.18756">
        <ele>561</ele>
        <time>2022-06-09T16:32:12Z</time>
      </trkpt>
      <trkpt lat="48.60318" lon="7.18891">
        <ele>555</ele>
        <time>2022-06-09T16:32:29Z</time>
      </trkpt>
      <trkpt lat="48.60259" lon="7.18935">
        <ele>557</ele>
        <time>2022-06-09T16:32:41Z</time>
      </trkpt>
      <trkpt lat="48.60188" lon="7.18941">
        <ele>563</ele>
        <time>2022-06-09T16:32:54Z</time>
      </trkpt>
      <trkpt lat="48.60064" lon="7.19024">
        <ele>576</ele>
        <time>2022-06-09T16:33:18Z</time>
      </trkpt>
      <trkpt lat="48.60059" lon="7.19066">
        <ele>577</ele>
        <time>2022-06-09T16:33:23Z</time>
      </trkpt>
      <trkpt lat="48.60251" lon="7.19442">
        <ele>562</ele>
        <time>2022-06-09T16:34:19Z</time>
      </trkpt>
      <trkpt lat="48.60259" lon="7.19519">
        <ele>561</ele>
        <time>2022-06-09T16:34:28Z</time>
      </trkpt>
      <trkpt lat="48.60251" lon="7.19586">
        <ele>561</ele>
        <time>2022-06-09T16:34:36Z</time>
      </trkpt>
      <trkpt lat="48.60156" lon="7.19705">
        <ele>569</ele>
        <time>2022-06-09T16:34:58Z</time>
      </trkpt>
      <trkpt lat="48.60122" lon="7.19841">
        <ele>553</ele>
        <time>2022-06-09T16:35:15Z</time>
      </trkpt>
      <trkpt lat="48.60066" lon="7.19894">
        <ele>552</ele>
        <time>2022-06-09T16:35:27Z</time>
      </trkpt>
      <trkpt lat="48.59917" lon="7.1981">
        <ele>557</ele>
        <time>2022-06-09T16:35:55Z</time>
      </trkpt>
      <trkpt lat="48.59873" lon="7.19874">
        <ele>540</ele>
        <time>2022-06-09T16:36:06Z</time>
      </trkpt>
      <trkpt lat="48.59765" lon="7.19838">
        <ele>552</ele>
        <time>2022-06-09T16:36:26Z</time>
      </trkpt>
      <trkpt lat="48.59735" lon="7.19847">
        <ele>554</ele>
        <time>2022-06-09T16:36:31Z</time>
      </trkpt>
      <trkpt lat="48.59744" lon="7.19892">
        <ele>548</ele>
        <time>2022-06-09T16:36:37Z</time>
      </trkpt>
      <trkpt lat="48.59806" lon="7.20023">
        <ele>538</ele>
        <time>2022-06-09T16:36:56Z</time>
      </trkpt>
      <trkpt lat="48.59919" lon="7.20102">
        <ele>520</ele>
        <time>2022-06-09T16:37:18Z</time>
      </trkpt>
      <trkpt lat="48.5994" lon="7.20137">
        <ele>516</ele>
        <time>2022-06-09T16:37:23Z</time>
      </trkpt>
      <trkpt lat="48.59936" lon="7.20176">
        <ele>514</ele>
        <time>2022-06-09T16:37:28Z</time>
      </trkpt>
      <trkpt lat="48.59882" lon="7.20245">
        <ele>509</ele>
        <time>2022-06-09T16:37:41Z</time>
      </trkpt>
      <trkpt lat="48.59829" lon="7.20264">
        <ele>516</ele>
        <time>2022-06-09T16:37:50Z</time>
      </trkpt>
      <trkpt lat="48.59754" lon="7.20495">
        <ele>497</ele>
        <time>2022-06-09T16:38:20Z</time>
      </trkpt>
      <trkpt lat="48.59701" lon="7.20615">
        <ele>496</ele>
        <time>2022-06-09T16:38:37Z</time>
      </trkpt>
      <trkpt lat="48.59651" lon="7.20655">
        <ele>499</ele>
        <time>2022-06-09T16:38:48Z</time>
      </trkpt>
      <trkpt lat="48.59557" lon="7.20673">
        <ele>505</ele>
        <time>2022-06-09T16:39:04Z</time>
      </trkpt>
      <trkpt lat="48.59436" lon="7.20583">
        <ele>508</ele>
        <time>2022-06-09T16:39:28Z</time>
      </trkpt>
      <trkpt lat="48.59377" lon="7.20555">
        <ele>516</ele>
        <time>2022-06-09T16:39:39Z</time>
      </trkpt>
      <trkpt lat="48.59263" lon="7.20742">
        <ele>513</ele>
        <time>2022-06-09T16:40:09Z</time>
      </trkpt>
      <trkpt lat="48.59103" lon="7.2083">
        <ele>521</ele>
        <time>2022-06-09T16:40:40Z</time>
      </trkpt>
      <trkpt lat="48.59074" lon="7.20884">
        <ele>525</ele>
        <time>2022-06-09T16:40:48Z</time>
      </trkpt>
      <trkpt lat="48.59011" lon="7.20969">
        <ele>535</ele>
        <time>2022-06-09T16:41:03Z</time>
      </trkpt>
      <trkpt lat="48.58968" lon="7.2109">
        <ele>539</ele>
        <time>2022-06-09T16:41:19Z</time>
      </trkpt>
      <trkpt lat="48.5893" lon="7.21165">
        <ele>535</ele>
        <time>2022-06-09T16:41:30Z</time>
      </trkpt>
      <trkpt lat="48.58813" lon="7.21294">
        <ele>549</ele>
        <time>2022-06-09T16:41:56Z</time>
      </trkpt>
      <trkpt lat="48.58768" lon="7.21385">
        <ele>553</ele>
        <time>2022-06-09T16:42:09Z</time>
      </trkpt>
      <trkpt lat="48.58678" lon="7.21465">
        <ele>561</ele>
        <time>2022-06-09T16:42:28Z</time>
      </trkpt>
      <trkpt lat="48.58605" lon="7.21471">
        <ele>557</ele>
        <time>2022-06-09T16:42:41Z</time>
      </trkpt>
      <trkpt lat="48.58542" lon="7.21548">
        <ele>563</ele>
        <time>2022-06-09T16:42:55Z</time>
      </trkpt>
      <trkpt lat="48.58463" lon="7.21905">
        <ele>576</ele>
        <time>2022-06-09T16:43:40Z</time>
      </trkpt>
      <trkpt lat="48.58417" lon="7.22015">
        <ele>570</ele>
        <time>2022-06-09T16:43:55Z</time>
      </trkpt>
      <trkpt lat="48.58267" lon="7.22443">
        <ele>597</ele>
        <time>2022-06-09T16:44:52Z</time>
      </trkpt>
      <trkpt lat="48.58187" lon="7.22566">
        <ele>604</ele>
        <time>2022-06-09T16:45:12Z</time>
      </trkpt>
      <trkpt lat="48.58068" lon="7.22765">
        <ele>607</ele>
        <time>2022-06-09T16:45:44Z</time>
      </trkpt>
      <trkpt lat="48.58014" lon="7.22918">
        <ele>613</ele>
        <time>2022-06-09T16:46:04Z</time>
      </trkpt>
      <trkpt lat="48.57984" lon="7.22875">
        <ele>616</ele>
        <time>2022-06-09T16:46:12Z</time>
      </trkpt>
      <trkpt lat="48.57918" lon="7.22924">
        <ele>628</ele>
        <time>2022-06-09T16:46:25Z</time>
      </trkpt>
      <trkpt lat="48.5782" lon="7.23145">
        <ele>650</ele>
        <time>2022-06-09T16:46:56Z</time>
      </trkpt>
      <trkpt lat="48.57737" lon="7.23224">
        <ele>662</ele>
        <time>2022-06-09T16:47:13Z</time>
      </trkpt>
      <trkpt lat="48.57671" lon="7.23319">
        <ele>670</ele>
        <time>2022-06-09T16:47:30Z</time>
      </trkpt>
      <trkpt lat="48.57556" lon="7.23353">
        <ele>685</ele>
        <time>2022-06-09T16:47:50Z</time>
      </trkpt>
      <trkpt lat="48.57451" lon="7.23315">
        <ele>695</ele>
        <time>2022-06-09T16:48:10Z</time>
      </trkpt>
      <trkpt lat="48.57365" lon="7.2293">
        <ele>738</ele>
        <time>2022-06-09T16:48:57Z</time>
      </trkpt>
      <trkpt lat="48.57158" lon="7.22664">
        <ele>760</ele>
        <time>2022-06-09T16:49:46Z</time>
      </trkpt>
      <trkpt lat="48.57084" lon="7.22629">
        <ele>766</ele>
        <time>2022-06-09T16:50:00Z</time>
      </trkpt>
      <trkpt lat="48.56935" lon="7.22511">
        <ele>782</ele>
        <time>2022-06-09T16:50:30Z</time>
      </trkpt>
      <trkpt lat="48.56869" lon="7.22468">
        <ele>790</ele>
        <time>2022-06-09T16:50:42Z</time>
      </trkpt>
      <trkpt lat="48.56823" lon="7.22469">
        <ele>790</ele>
        <time>2022-06-09T16:50:51Z</time>
      </trkpt>
      <trkpt lat="48.5691" lon="7.2263">
        <ele>782</ele>
        <time>2022-06-09T16:51:15Z</time>
      </trkpt>
      <trkpt lat="48.56958" lon="7.22808">
        <ele>795</ele>
        <time>2022-06-09T16:51:38Z</time>
      </trkpt>
      <trkpt lat="48.57103" lon="7.23055">
        <ele>792</ele>
        <time>2022-06-09T16:52:17Z</time>
      </trkpt>
      <trkpt lat="48.5711" lon="7.23138">
        <ele>796</ele>
        <time>2022-06-09T16:52:26Z</time>
      </trkpt>
      <trkpt lat="48.57096" lon="7.23222">
        <ele>801</ele>
        <time>2022-06-09T16:52:37Z</time>
      </trkpt>
      <trkpt lat="48.57026" lon="7.23317">
        <ele>809</ele>
        <time>2022-06-09T16:52:53Z</time>
      </trkpt>
      <trkpt lat="48.57002" lon="7.23439">
        <ele>810</ele>
        <time>2022-06-09T16:53:08Z</time>
      </trkpt>
      <trkpt lat="48.57032" lon="7.2357">
        <ele>811</ele>
        <time>2022-06-09T16:53:25Z</time>
      </trkpt>
      <trkpt lat="48.5707" lon="7.23711">
        <ele>812</ele>
        <time>2022-06-09T16:53:43Z</time>
      </trkpt>
      <trkpt lat="48.57328" lon="7.23973">
        <ele>813</ele>
        <time>2022-06-09T16:54:38Z</time>
      </trkpt>
      <trkpt lat="48.57405" lon="7.24102">
        <ele>813</ele>
        <time>2022-06-09T16:54:58Z</time>
      </trkpt>
      <trkpt lat="48.57595" lon="7.24201">
        <ele>822</ele>
        <time>2022-06-09T16:55:34Z</time>
      </trkpt>
      <trkpt lat="48.57817" lon="7.24166">
        <ele>819</ele>
        <time>2022-06-09T16:56:14Z</time>
      </trkpt>
      <trkpt lat="48.5795" lon="7.24342">
        <ele>835</ele>
        <time>2022-06-09T16:56:45Z</time>
      </trkpt>
      <trkpt lat="48.58179" lon="7.24422">
        <ele>833</ele>
        <time>2022-06-09T16:57:27Z</time>
      </trkpt>
      <trkpt lat="48.58292" lon="7.24544">
        <ele>845</ele>
        <time>2022-06-09T16:57:52Z</time>
      </trkpt>
      <trkpt lat="48.58419" lon="7.24591">
        <ele>840</ele>
        <time>2022-06-09T16:58:15Z</time>
      </trkpt>
      <trkpt lat="48.58514" lon="7.24724">
        <ele>848</ele>
        <time>2022-06-09T16:58:38Z</time>
      </trkpt>
      <trkpt lat="48.58586" lon="7.24973">
        <ele>860</ele>
        <time>2022-06-09T16:59:10Z</time>
      </trkpt>
      <trkpt lat="48.58812" lon="7.25136">
        <ele>872</ele>
        <time>2022-06-09T16:59:55Z</time>
      </trkpt>
      <trkpt lat="48.58907" lon="7.25087">
        <ele>878</ele>
        <time>2022-06-09T17:00:12Z</time>
      </trkpt>
      <trkpt lat="48.58935" lon="7.2493">
        <ele>875</ele>
        <time>2022-06-09T17:00:32Z</time>
      </trkpt>
      <trkpt lat="48.58974" lon="7.2489">
        <ele>877</ele>
        <time>2022-06-09T17:00:40Z</time>
      </trkpt>
      <trkpt lat="48.59059" lon="7.2489">
        <ele>878</ele>
        <time>2022-06-09T17:00:55Z</time>
      </trkpt>
      <trkpt lat="48.59163" lon="7.25003">
        <ele>885</ele>
        <time>2022-06-09T17:01:18Z</time>
      </trkpt>
      <trkpt lat="48.59229" lon="7.24999">
        <ele>880</ele>
        <time>2022-06-09T17:01:30Z</time>
      </trkpt>
      <trkpt lat="48.59287" lon="7.24872">
        <ele>882</ele>
        <time>2022-06-09T17:01:48Z</time>
      </trkpt>
      <trkpt lat="48.59191" lon="7.24692">
        <ele>872</ele>
        <time>2022-06-09T17:02:15Z</time>
      </trkpt>
      <trkpt lat="48.59164" lon="7.2451">
        <ele>865</ele>
        <time>2022-06-09T17:02:37Z</time>
      </trkpt>
      <trkpt lat="48.59195" lon="7.24478">
        <ele>861</ele>
        <time>2022-06-09T17:02:44Z</time>
      </trkpt>
      <trkpt lat="48.59321" lon="7.24512">
        <ele>852</ele>
        <time>2022-06-09T17:03:06Z</time>
      </trkpt>
      <trkpt lat="48.59506" lon="7.24621">
        <ele>838</ele>
        <time>2022-06-09T17:03:42Z</time>
      </trkpt>
      <trkpt lat="48.59732" lon="7.25166">
        <ele>827</ele>
        <time>2022-06-09T17:04:57Z</time>
      </trkpt>
      <trkpt lat="48.59834" lon="7.25192">
        <ele>826</ele>
        <time>2022-06-09T17:05:16Z</time>
      </trkpt>
      <trkpt lat="48.59888" lon="7.25123">
        <ele>820</ele>
        <time>2022-06-09T17:05:28Z</time>
      </trkpt>
      <trkpt lat="48.60034" lon="7.2505">
        <ele>806</ele>
        <time>2022-06-09T17:05:56Z</time>
      </trkpt>
      <trkpt lat="48.60187" lon="7.25102">
        <ele>805</ele>
        <time>2022-06-09T17:06:24Z</time>
      </trkpt>
      <trkpt lat="48.60316" lon="7.25163">
        <ele>803</ele>
        <time>2022-06-09T17:06:48Z</time>
      </trkpt>
      <trkpt lat="48.60318" lon="7.25488">
        <ele>803</ele>
        <time>2022-06-09T17:07:26Z</time>
      </trkpt>
      <trkpt lat="48.60262" lon="7.25525">
        <ele>797</ele>
        <time>2022-06-09T17:07:37Z</time>
      </trkpt>
      <trkpt lat="48.60051" lon="7.25477">
        <ele>786</ele>
        <time>2022-06-09T17:08:15Z</time>
      </trkpt>
      <trkpt lat="48.59895" lon="7.25514">
        <ele>793</ele>
        <time>2022-06-09T17:08:43Z</time>
      </trkpt>
      <trkpt lat="48.59716" lon="7.25632">
        <ele>786</ele>
        <time>2022-06-09T17:09:18Z</time>
      </trkpt>
      <trkpt lat="48.59725" lon="7.2569">
        <ele>779</ele>
        <time>2022-06-09T17:09:25Z</time>
      </trkpt>
      <trkpt lat="48.59828" lon="7.25696">
        <ele>772</ele>
        <time>2022-06-09T17:09:43Z</time>
      </trkpt>
      <trkpt lat="48.59935" lon="7.25675">
        <ele>760</ele>
        <time>2022-06-09T17:10:02Z</time>
      </trkpt>
      <trkpt lat="48.60099" lon="7.25741">
        <ele>751</ele>
        <time>2022-06-09T17:10:32Z</time>
      </trkpt>
      <trkpt lat="48.60217" lon="7.25913">
        <ele>745</ele>
        <time>2022-06-09T17:11:02Z</time>
      </trkpt>
      <trkpt lat="48.60312" lon="7.26123">
        <ele>730</ele>
        <time>2022-06-09T17:11:32Z</time>
      </trkpt>
      <trkpt lat="48.60346" lon="7.26265">
        <ele>724</ele>
        <time>2022-06-09T17:11:49Z</time>
      </trkpt>
      <trkpt lat="48.60294" lon="7.26389">
        <ele>737</ele>
        <time>2022-06-09T17:12:07Z</time>
      </trkpt>
      <trkpt lat="48.60424" lon="7.26357">
        <ele>711</ele>
        <time>2022-06-09T17:12:30Z</time>
      </trkpt>
      <trkpt lat="48.60584" lon="7.26422">
        <ele>701</ele>
        <time>2022-06-09T17:12:59Z</time>
      </trkpt>
      <trkpt lat="48.60756" lon="7.26572">
        <ele>683</ele>
        <time>2022-06-09T17:13:35Z</time>
      </trkpt>
      <trkpt lat="48.60817" lon="7.2669">
        <ele>675</ele>
        <time>2022-06-09T17:13:52Z</time>
      </trkpt>
      <trkpt lat="48.60752" lon="7.26984">
        <ele>664</ele>
        <time>2022-06-09T17:14:29Z</time>
      </trkpt>
      <trkpt lat="48.60807" lon="7.26973">
        <ele>668</ele>
        <time>2022-06-09T17:14:39Z</time>
      </trkpt>
      <trkpt lat="48.60925" lon="7.26887">
        <ele>654</ele>
        <time>2022-06-09T17:15:02Z</time>
      </trkpt>
      <trkpt lat="48.60982" lon="7.26881">
        <ele>648</ele>
        <time>2022-06-09T17:15:12Z</time>
      </trkpt>
      <trkpt lat="48.61089" lon="7.26945">
        <ele>637</ele>
        <time>2022-06-09T17:15:33Z</time>
      </trkpt>
      <trkpt lat="48.61125" lon="7.27048">
        <ele>638</ele>
        <time>2022-06-09T17:15:46Z</time>
      </trkpt>
      <trkpt lat="48.61197" lon="7.27113">
        <ele>634</ele>
        <time>2022-06-09T17:16:01Z</time>
      </trkpt>
      <trkpt lat="48.61308" lon="7.27125">
        <ele>625</ele>
        <time>2022-06-09T17:16:21Z</time>
      </trkpt>
      <trkpt lat="48.61414" lon="7.27027">
        <ele>605</ele>
        <time>2022-06-09T17:16:43Z</time>
      </trkpt>
      <trkpt lat="48.61498" lon="7.27022">
        <ele>599</ele>
        <time>2022-06-09T17:16:58Z</time>
      </trkpt>
      <trkpt lat="48.61722" lon="7.26995">
        <ele>567</ele>
        <time>2022-06-09T17:17:38Z</time>
      </trkpt>
      <trkpt lat="48.61851" lon="7.27055">
        <ele>559</ele>
        <time>2022-06-09T17:18:02Z</time>
      </trkpt>
      <trkpt lat="48.61961" lon="7.2752">
        <ele>534</ele>
        <time>2022-06-09T17:19:00Z</time>
      </trkpt>
      <trkpt lat="48.6224" lon="7.27634">
        <ele>512</ele>
        <time>2022-06-09T17:19:52Z</time>
      </trkpt>
      <trkpt lat="48.62368" lon="7.27758">
        <ele>500</ele>
        <time>2022-06-09T17:20:19Z</time>
      </trkpt>
      <trkpt lat="48.62545" lon="7.27937">
        <ele>486</ele>
        <time>2022-06-09T17:20:57Z</time>
      </trkpt>
      <trkpt lat="48.62826" lon="7.27909">
        <ele>467</ele>
        <time>2022-06-09T17:21:47Z</time>
      </trkpt>
      <trkpt lat="48.63016" lon="7.28318">
        <ele>456</ele>
        <time>2022-06-09T17:22:46Z</time>
      </trkpt>
      <trkpt lat="48.63138" lon="7.28681">
        <ele>431</ele>
        <time>2022-06-09T17:23:33Z</time>
      </trkpt>
      <trkpt lat="48.63326" lon="7.29191">
        <ele>405</ele>
        <time>2022-06-09T17:24:42Z</time>
      </trkpt>
      <trkpt lat="48.63316" lon="7.29425">
        <ele>403</ele>
        <time>2022-06-09T17:25:10Z</time>
      </trkpt>
      <trkpt lat="48.63323" lon="7.29596">
        <ele>393</ele>
        <time>2022-06-09T17:25:30Z</time>
      </trkpt>
      <trkpt lat="48.63333" lon="7.297">
        <ele>390</ele>
        <time>2022-06-09T17:25:42Z</time>
      </trkpt>
      <trkpt lat="48.63353" lon="7.29738">
        <ele>389</ele>
        <time>2022-06-09T17:25:48Z</time>
      </trkpt>
      <trkpt lat="48.63351" lon="7.29858">
        <ele>389</ele>
        <time>2022-06-09T17:26:02Z</time>
      </trkpt>
      <trkpt lat="48.63287" lon="7.30051">
        <ele>391</ele>
        <time>2022-06-09T17:26:27Z</time>
      </trkpt>
      <trkpt lat="48.6326" lon="7.30161">
        <ele>391</ele>
        <time>2022-06-09T17:26:41Z</time>
      </trkpt>
      <trkpt lat="48.63236" lon="7.30219">
        <ele>393</ele>
        <time>2022-06-09T17:26:49Z</time>
      </trkpt>
      <trkpt lat="48.63187" lon="7.30255">
        <ele>398</ele>
        <time>2022-06-09T17:26:59Z</time>
      </trkpt>
      <trkpt lat="48.63047" lon="7.30295">
        <ele>414</ele>
        <time>2022-06-09T17:27:24Z</time>
      </trkpt>
      <trkpt lat="48.6295" lon="7.30208">
        <ele>437</ele>
        <time>2022-06-09T17:27:44Z</time>
      </trkpt>
      <trkpt lat="48.62946" lon="7.30265">
        <ele>430</ele>
        <time>2022-06-09T17:27:51Z</time>
      </trkpt>
      <trkpt lat="48.62902" lon="7.30275">
        <ele>435</ele>
        <time>2022-06-09T17:27:59Z</time>
      </trkpt>
      <trkpt lat="48.62754" lon="7.30221">
        <ele>452</ele>
        <time>2022-06-09T17:28:26Z</time>
      </trkpt>
      <trkpt lat="48.62695" lon="7.30419">
        <ele>454</ele>
        <time>2022-06-09T17:28:52Z</time>
      </trkpt>
      <trkpt lat="48.62664" lon="7.30421">
        <ele>460</ele>
        <time>2022-06-09T17:28:57Z</time>
      </trkpt>
      <trkpt lat="48.62536" lon="7.30441">
        <ele>464</ele>
        <time>2022-06-09T17:29:20Z</time>
      </trkpt>
      <trkpt lat="48.6244" lon="7.30417">
        <ele>481</ele>
        <time>2022-06-09T17:29:37Z</time>
      </trkpt>
      <trkpt lat="48.62336" lon="7.30451">
        <ele>483</ele>
        <time>2022-06-09T17:29:56Z</time>
      </trkpt>
      <trkpt lat="48.62275" lon="7.30397">
        <ele>495</ele>
        <time>2022-06-09T17:30:09Z</time>
      </trkpt>
      <trkpt lat="48.62123" lon="7.30354">
        <ele>498</ele>
        <time>2022-06-09T17:30:36Z</time>
      </trkpt>
      <trkpt lat="48.62006" lon="7.30251">
        <ele>500</ele>
        <time>2022-06-09T17:31:00Z</time>
      </trkpt>
      <trkpt lat="48.61677" lon="7.29981">
        <ele>500</ele>
        <time>2022-06-09T17:32:07Z</time>
      </trkpt>
      <trkpt lat="48.61639" lon="7.29899">
        <ele>505</ele>
        <time>2022-06-09T17:32:19Z</time>
      </trkpt>
      <trkpt lat="48.61418" lon="7.29477">
        <ele>520</ele>
        <time>2022-06-09T17:33:22Z</time>
      </trkpt>
      <trkpt lat="48.61368" lon="7.29308">
        <ele>544</ele>
        <time>2022-06-09T17:33:44Z</time>
      </trkpt>
      <trkpt lat="48.61349" lon="7.29287">
        <ele>542</ele>
        <time>2022-06-09T17:33:48Z</time>
      </trkpt>
      <trkpt lat="48.61297" lon="7.29461">
        <ele>533</ele>
        <time>2022-06-09T17:34:11Z</time>
      </trkpt>
      <trkpt lat="48.61251" lon="7.29554">
        <ele>535</ele>
        <time>2022-06-09T17:34:24Z</time>
      </trkpt>
      <trkpt lat="48.6118" lon="7.29669">
        <ele>540</ele>
        <time>2022-06-09T17:34:43Z</time>
      </trkpt>
      <trkpt lat="48.61134" lon="7.29712">
        <ele>535</ele>
        <time>2022-06-09T17:34:52Z</time>
      </trkpt>
      <trkpt lat="48.61093" lon="7.29715">
        <ele>540</ele>
        <time>2022-06-09T17:35:00Z</time>
      </trkpt>
      <trkpt lat="48.60965" lon="7.29684">
        <ele>547</ele>
        <time>2022-06-09T17:35:23Z</time>
      </trkpt>
      <trkpt lat="48.60912" lon="7.2968">
        <ele>551</ele>
        <time>2022-06-09T17:35:32Z</time>
      </trkpt>
      <trkpt lat="48.60882" lon="7.29699">
        <ele>553</ele>
        <time>2022-06-09T17:35:38Z</time>
      </trkpt>
      <trkpt lat="48.6089" lon="7.29874">
        <ele>553</ele>
        <time>2022-06-09T17:35:59Z</time>
      </trkpt>
      <trkpt lat="48.61183" lon="7.30198">
        <ele>539</ele>
        <time>2022-06-09T17:37:03Z</time>
      </trkpt>
      <trkpt lat="48.61215" lon="7.30293">
        <ele>540</ele>
        <time>2022-06-09T17:37:16Z</time>
      </trkpt>
      <trkpt lat="48.61217" lon="7.30377">
        <ele>542</ele>
        <time>2022-06-09T17:37:26Z</time>
      </trkpt>
      <trkpt lat="48.61193" lon="7.30439">
        <ele>548</ele>
        <time>2022-06-09T17:37:34Z</time>
      </trkpt>
      <trkpt lat="48.61148" lon="7.30519">
        <ele>550</ele>
        <time>2022-06-09T17:37:46Z</time>
      </trkpt>
      <trkpt lat="48.6109" lon="7.30565">
        <ele>550</ele>
        <time>2022-06-09T17:37:58Z</time>
      </trkpt>
      <trkpt lat="48.60947" lon="7.30594">
        <ele>563</ele>
        <time>2022-06-09T17:38:24Z</time>
      </trkpt>
      <trkpt lat="48.60827" lon="7.30607">
        <ele>563</ele>
        <time>2022-06-09T17:38:45Z</time>
      </trkpt>
      <trkpt lat="48.60723" lon="7.30573">
        <ele>566</ele>
        <time>2022-06-09T17:39:04Z</time>
      </trkpt>
      <trkpt lat="48.60638" lon="7.30508">
        <ele>579</ele>
        <time>2022-06-09T17:39:21Z</time>
      </trkpt>
      <trkpt lat="48.60552" lon="7.30511">
        <ele>578</ele>
        <time>2022-06-09T17:39:36Z</time>
      </trkpt>
      <trkpt lat="48.60488" lon="7.30539">
        <ele>575</ele>
        <time>2022-06-09T17:39:48Z</time>
      </trkpt>
      <trkpt lat="48.60317" lon="7.30485">
        <ele>588</ele>
        <time>2022-06-09T17:40:19Z</time>
      </trkpt>
      <trkpt lat="48.60201" lon="7.30415">
        <ele>599</ele>
        <time>2022-06-09T17:40:42Z</time>
      </trkpt>
      <trkpt lat="48.60134" lon="7.30391">
        <ele>596</ele>
        <time>2022-06-09T17:40:54Z</time>
      </trkpt>
      <trkpt lat="48.60085" lon="7.30326">
        <ele>604</ele>
        <time>2022-06-09T17:41:05Z</time>
      </trkpt>
      <trkpt lat="48.60006" lon="7.30318">
        <ele>608</ele>
        <time>2022-06-09T17:41:19Z</time>
      </trkpt>
      <trkpt lat="48.59977" lon="7.30394">
        <ele>597</ele>
        <time>2022-06-09T17:41:30Z</time>
      </trkpt>
      <trkpt lat="48.59861" lon="7.30434">
        <ele>609</ele>
        <time>2022-06-09T17:41:51Z</time>
      </trkpt>
      <trkpt lat="48.59852" lon="7.30485">
        <ele>604</ele>
        <time>2022-06-09T17:41:57Z</time>
      </trkpt>
      <trkpt lat="48.60113" lon="7.30673">
        <ele>589</ele>
        <time>2022-06-09T17:42:49Z</time>
      </trkpt>
      <trkpt lat="48.60199" lon="7.30809">
        <ele>592</ele>
        <time>2022-06-09T17:43:11Z</time>
      </trkpt>
      <trkpt lat="48.60237" lon="7.30922">
        <ele>590</ele>
        <time>2022-06-09T17:43:26Z</time>
      </trkpt>
      <trkpt lat="48.60231" lon="7.31001">
        <ele>588</ele>
        <time>2022-06-09T17:43:35Z</time>
      </trkpt>
      <trkpt lat="48.60196" lon="7.31063">
        <ele>587</ele>
        <time>2022-06-09T17:43:45Z</time>
      </trkpt>
      <trkpt lat="48.60112" lon="7.31125">
        <ele>601</ele>
        <time>2022-06-09T17:44:01Z</time>
      </trkpt>
      <trkpt lat="48.60043" lon="7.31248">
        <ele>601</ele>
        <time>2022-06-09T17:44:20Z</time>
      </trkpt>
      <trkpt lat="48.5996" lon="7.31357">
        <ele>606</ele>
        <time>2022-06-09T17:44:40Z</time>
      </trkpt>
      <trkpt lat="48.59916" lon="7.31284">
        <ele>617</ele>
        <time>2022-06-09T17:44:51Z</time>
      </trkpt>
      <trkpt lat="48.5988" lon="7.31273">
        <ele>620</ele>
        <time>2022-06-09T17:44:58Z</time>
      </trkpt>
      <trkpt lat="48.59788" lon="7.31282">
        <ele>629</ele>
        <time>2022-06-09T17:45:14Z</time>
      </trkpt>
      <trkpt lat="48.59699" lon="7.3135">
        <ele>634</ele>
        <time>2022-06-09T17:45:32Z</time>
      </trkpt>
      <trkpt lat="48.59546" lon="7.31435">
        <ele>647</ele>
        <time>2022-06-09T17:46:01Z</time>
      </trkpt>
      <trkpt lat="48.59348" lon="7.31589">
        <ele>658</ele>
        <time>2022-06-09T17:46:41Z</time>
      </trkpt>
      <trkpt lat="48.59326" lon="7.3163">
        <ele>661</ele>
        <time>2022-06-09T17:46:47Z</time>
      </trkpt>
      <trkpt lat="48.59331" lon="7.31768">
        <ele>661</ele>
        <time>2022-06-09T17:47:03Z</time>
      </trkpt>
      <trkpt lat="48.59272" lon="7.31854">
        <ele>664</ele>
        <time>2022-06-09T17:47:18Z</time>
      </trkpt>
      <trkpt lat="48.59218" lon="7.31867">
        <ele>665</ele>
        <time>2022-06-09T17:47:27Z</time>
      </trkpt>
      <trkpt lat="48.58949" lon="7.3164">
        <ele>674</ele>
        <time>2022-06-09T17:48:22Z</time>
      </trkpt>
      <trkpt lat="48.5893" lon="7.31588">
        <ele>672</ele>
        <time>2022-06-09T17:48:29Z</time>
      </trkpt>
      <trkpt lat="48.5894" lon="7.31516">
        <ele>672</ele>
        <time>2022-06-09T17:48:38Z</time>
      </trkpt>
      <trkpt lat="48.58981" lon="7.31475">
        <ele>675</ele>
        <time>2022-06-09T17:48:47Z</time>
      </trkpt>
      <trkpt lat="48.58994" lon="7.31428">
        <ele>675</ele>
        <time>2022-06-09T17:48:53Z</time>
      </trkpt>
      <trkpt lat="48.58994" lon="7.31368">
        <ele>681</ele>
        <time>2022-06-09T17:49:00Z</time>
      </trkpt>
      <trkpt lat="48.58897" lon="7.31213">
        <ele>680</ele>
        <time>2022-06-09T17:49:25Z</time>
      </trkpt>
      <trkpt lat="48.58681" lon="7.31029">
        <ele>665</ele>
        <time>2022-06-09T17:50:09Z</time>
      </trkpt>
      <trkpt lat="48.58568" lon="7.309">
        <ele>658</ele>
        <time>2022-06-09T17:50:34Z</time>
      </trkpt>
      <trkpt lat="48.5847" lon="7.30852">
        <ele>641</ele>
        <time>2022-06-09T17:50:52Z</time>
      </trkpt>
      <trkpt lat="48.58425" lon="7.30812">
        <ele>634</ele>
        <time>2022-06-09T17:51:02Z</time>
      </trkpt>
      <trkpt lat="48.58415" lon="7.30725">
        <ele>634</ele>
        <time>2022-06-09T17:51:12Z</time>
      </trkpt>
      <trkpt lat="48.58443" lon="7.30621">
        <ele>638</ele>
        <time>2022-06-09T17:51:25Z</time>
      </trkpt>
      <trkpt lat="48.58574" lon="7.30024">
        <ele>633</ele>
        <time>2022-06-09T17:52:39Z</time>
      </trkpt>
      <trkpt lat="48.58599" lon="7.29683">
        <ele>634</ele>
        <time>2022-06-09T17:53:20Z</time>
      </trkpt>
      <trkpt lat="48.58589" lon="7.29619">
        <ele>638</ele>
        <time>2022-06-09T17:53:28Z</time>
      </trkpt>
      <trkpt lat="48.58535" lon="7.29457">
        <ele>638</ele>
        <time>2022-06-09T17:53:49Z</time>
      </trkpt>
      <trkpt lat="48.5852" lon="7.29343">
        <ele>638</ele>
        <time>2022-06-09T17:54:03Z</time>
      </trkpt>
      <trkpt lat="48.5862" lon="7.29065">
        <ele>626</ele>
        <time>2022-06-09T17:54:40Z</time>
      </trkpt>
      <trkpt lat="48.58637" lon="7.2894">
        <ele>614</ele>
        <time>2022-06-09T17:54:55Z</time>
      </trkpt>
      <trkpt lat="48.58684" lon="7.28725">
        <ele>612</ele>
        <time>2022-06-09T17:55:21Z</time>
      </trkpt>
      <trkpt lat="48.5867" lon="7.28635">
        <ele>612</ele>
        <time>2022-06-09T17:55:32Z</time>
      </trkpt>
      <trkpt lat="48.58615" lon="7.28552">
        <ele>623</ele>
        <time>2022-06-09T17:55:46Z</time>
      </trkpt>
      <trkpt lat="48.58524" lon="7.28549">
        <ele>620</ele>
        <time>2022-06-09T17:56:02Z</time>
      </trkpt>
      <trkpt lat="48.58432" lon="7.28587">
        <ele>606</ele>
        <time>2022-06-09T17:56:19Z</time>
      </trkpt>
      <trkpt lat="48.58389" lon="7.28552">
        <ele>606</ele>
        <time>2022-06-09T17:56:28Z</time>
      </trkpt>
      <trkpt lat="48.58335" lon="7.28245">
        <ele>613</ele>
        <time>2022-06-09T17:57:05Z</time>
      </trkpt>
      <trkpt lat="48.58282" lon="7.28048">
        <ele>610</ele>
        <time>2022-06-09T17:57:30Z</time>
      </trkpt>
      <trkpt lat="48.5825" lon="7.28029">
        <ele>605</ele>
        <time>2022-06-09T17:57:37Z</time>
      </trkpt>
      <trkpt lat="48.58157" lon="7.28027">
        <ele>600</ele>
        <time>2022-06-09T17:57:53Z</time>
      </trkpt>
      <trkpt lat="48.5809" lon="7.27991">
        <ele>601</ele>
        <time>2022-06-09T17:58:06Z</time>
      </trkpt>
      <trkpt lat="48.58033" lon="7.28029">
        <ele>587</ele>
        <time>2022-06-09T17:58:17Z</time>
      </trkpt>
      <trkpt lat="48.5799" lon="7.28026">
        <ele>582</ele>
        <time>2022-06-09T17:58:25Z</time>
      </trkpt>
      <trkpt lat="48.57977" lon="7.27926">
        <ele>595</ele>
        <time>2022-06-09T17:58:37Z</time>
      </trkpt>
      <trkpt lat="48.57936" lon="7.27888">
        <ele>589</ele>
        <time>2022-06-09T17:58:45Z</time>
      </trkpt>
      <trkpt lat="48.57773" lon="7.2752">
        <ele>556</ele>
        <time>2022-06-09T17:59:37Z</time>
      </trkpt>
      <trkpt lat="48.57632" lon="7.27403">
        <ele>531</ele>
        <time>2022-06-09T18:00:06Z</time>
      </trkpt>
      <trkpt lat="48.5758" lon="7.274">
        <ele>516</ele>
        <time>2022-06-09T18:00:15Z</time>
      </trkpt>
      <trkpt lat="48.57566" lon="7.2732">
        <ele>523</ele>
        <time>2022-06-09T18:00:25Z</time>
      </trkpt>
      <trkpt lat="48.57593" lon="7.27199">
        <ele>528</ele>
        <time>2022-06-09T18:00:40Z</time>
      </trkpt>
      <trkpt lat="48.57586" lon="7.27159">
        <ele>528</ele>
        <time>2022-06-09T18:00:45Z</time>
      </trkpt>
      <trkpt lat="48.57512" lon="7.27145">
        <ele>515</ele>
        <time>2022-06-09T18:00:58Z</time>
      </trkpt>
      <trkpt lat="48.57456" lon="7.27095">
        <ele>511</ele>
        <time>2022-06-09T18:01:10Z</time>
      </trkpt>
      <trkpt lat="48.57363" lon="7.27056">
        <ele>501</ele>
        <time>2022-06-09T18:01:27Z</time>
      </trkpt>
      <trkpt lat="48.57264" lon="7.27076">
        <ele>490</ele>
        <time>2022-06-09T18:01:45Z</time>
      </trkpt>
      <trkpt lat="48.57244" lon="7.27047">
        <ele>488</ele>
        <time>2022-06-09T18:01:49Z</time>
      </trkpt>
      <trkpt lat="48.57241" lon="7.26959">
        <ele>489</ele>
        <time>2022-06-09T18:02:00Z</time>
      </trkpt>
      <trkpt lat="48.5727" lon="7.26885">
        <ele>494</ele>
        <time>2022-06-09T18:02:10Z</time>
      </trkpt>
      <trkpt lat="48.57261" lon="7.26812">
        <ele>490</ele>
        <time>2022-06-09T18:02:19Z</time>
      </trkpt>
      <trkpt lat="48.57261" lon="7.26747">
        <ele>488</ele>
        <time>2022-06-09T18:02:26Z</time>
      </trkpt>
      <trkpt lat="48.57291" lon="7.26677">
        <ele>484</ele>
        <time>2022-06-09T18:02:36Z</time>
      </trkpt>
      <trkpt lat="48.57247" lon="7.26619">
        <ele>473</ele>
        <time>2022-06-09T18:02:47Z</time>
      </trkpt>
      <trkpt lat="48.57183" lon="7.26607">
        <ele>463</ele>
        <time>2022-06-09T18:02:58Z</time>
      </trkpt>
      <trkpt lat="48.57147" lon="7.26656">
        <ele>464</ele>
        <time>2022-06-09T18:03:07Z</time>
      </trkpt>
      <trkpt lat="48.57125" lon="7.26751">
        <ele>461</ele>
        <time>2022-06-09T18:03:19Z</time>
      </trkpt>
      <trkpt lat="48.57114" lon="7.26893">
        <ele>449</ele>
        <time>2022-06-09T18:03:35Z</time>
      </trkpt>
      <trkpt lat="48.57092" lon="7.26898">
        <ele>439</ele>
        <time>2022-06-09T18:03:39Z</time>
      </trkpt>
      <trkpt lat="48.57062" lon="7.26808">
        <ele>442</ele>
        <time>2022-06-09T18:03:51Z</time>
      </trkpt>
      <trkpt lat="48.5701" lon="7.2675">
        <ele>435</ele>
        <time>2022-06-09T18:04:03Z</time>
      </trkpt>
      <trkpt lat="48.56996" lon="7.26628">
        <ele>428</ele>
        <time>2022-06-09T18:04:17Z</time>
      </trkpt>
      <trkpt lat="48.57073" lon="7.26519">
        <ele>432</ele>
        <time>2022-06-09T18:04:36Z</time>
      </trkpt>
      <trkpt lat="48.57062" lon="7.26476">
        <ele>431</ele>
        <time>2022-06-09T18:04:41Z</time>
      </trkpt>
      <trkpt lat="48.56945" lon="7.26551">
        <ele>420</ele>
        <time>2022-06-09T18:05:04Z</time>
      </trkpt>
      <trkpt lat="48.56849" lon="7.26715">
        <ele>398</ele>
        <time>2022-06-09T18:05:30Z</time>
      </trkpt>
      <trkpt lat="48.56864" lon="7.26812">
        <ele>398</ele>
        <time>2022-06-09T18:05:42Z</time>
      </trkpt>
      <trkpt lat="48.56914" lon="7.26881">
        <ele>400</ele>
        <time>2022-06-09T18:05:54Z</time>
      </trkpt>
      <trkpt lat="48.56983" lon="7.27118">
        <ele>395</ele>
        <time>2022-06-09T18:06:24Z</time>
      </trkpt>
      <trkpt lat="48.57013" lon="7.27271">
        <ele>391</ele>
        <time>2022-06-09T18:06:43Z</time>
      </trkpt>
      <trkpt lat="48.56994" lon="7.27764">
        <ele>388</ele>
        <time>2022-06-09T18:07:41Z</time>
      </trkpt>
      <trkpt lat="48.57029" lon="7.27893">
        <ele>383</ele>
        <time>2022-06-09T18:07:57Z</time>
      </trkpt>
      <trkpt lat="48.57037" lon="7.2802">
        <ele>386</ele>
        <time>2022-06-09T18:08:12Z</time>
      </trkpt>
      <trkpt lat="48.57039" lon="7.2818">
        <ele>381</ele>
        <time>2022-06-09T18:08:31Z</time>
      </trkpt>
      <trkpt lat="48.56929" lon="7.28413">
        <ele>372</ele>
        <time>2022-06-09T18:09:05Z</time>
      </trkpt>
      <trkpt lat="48.5693" lon="7.28551">
        <ele>360</ele>
        <time>2022-06-09T18:09:21Z</time>
      </trkpt>
      <trkpt lat="48.56906" lon="7.28628">
        <ele>362</ele>
        <time>2022-06-09T18:09:31Z</time>
      </trkpt>
      <trkpt lat="48.56754" lon="7.28882">
        <ele>355</ele>
        <time>2022-06-09T18:10:12Z</time>
      </trkpt>
      <trkpt lat="48.56627" lon="7.29217">
        <ele>343</ele>
        <time>2022-06-09T18:10:57Z</time>
      </trkpt>
      <trkpt lat="48.56589" lon="7.29335">
        <ele>335</ele>
        <time>2022-06-09T18:11:13Z</time>
      </trkpt>
      <trkpt lat="48.56593" lon="7.29688">
        <ele>336</ele>
        <time>2022-06-09T18:11:54Z</time>
      </trkpt>
      <trkpt lat="48.56547" lon="7.29901">
        <ele>327</ele>
        <time>2022-06-09T18:12:20Z</time>
      </trkpt>
      <trkpt lat="48.56501" lon="7.30022">
        <ele>324</ele>
        <time>2022-06-09T18:12:37Z</time>
      </trkpt>
      <trkpt lat="48.5651" lon="7.30129">
        <ele>327</ele>
        <time>2022-06-09T18:12:50Z</time>
      </trkpt>
      <trkpt lat="48.56531" lon="7.30267">
        <ele>331</ele>
        <time>2022-06-09T18:13:06Z</time>
      </trkpt>
      <trkpt lat="48.56504" lon="7.3033">
        <ele>321</ele>
        <time>2022-06-09T18:13:15Z</time>
      </trkpt>
      <trkpt lat="48.56334" lon="7.30545">
        <ele>312</ele>
        <time>2022-06-09T18:13:55Z</time>
      </trkpt>
      <trkpt lat="48.56248" lon="7.3071">
        <ele>319</ele>
        <time>2022-06-09T18:14:19Z</time>
      </trkpt>
      <trkpt lat="48.56065" lon="7.30815">
        <ele>314</ele>
        <time>2022-06-09T18:14:54Z</time>
      </trkpt>
      <trkpt lat="48.55925" lon="7.30873">
        <ele>304</ele>
        <time>2022-06-09T18:15:20Z</time>
      </trkpt>
      <trkpt lat="48.55825" lon="7.31089">
        <ele>309</ele>
        <time>2022-06-09T18:15:51Z</time>
      </trkpt>
      <trkpt lat="48.55722" lon="7.31248">
        <ele>306</ele>
        <time>2022-06-09T18:16:17Z</time>
      </trkpt>
      <trkpt lat="48.55573" lon="7.31414">
        <ele>301</ele>
        <time>2022-06-09T18:16:50Z</time>
      </trkpt>
      <trkpt lat="48.5551" lon="7.31538">
        <ele>298</ele>
        <time>2022-06-09T18:17:09Z</time>
      </trkpt>
      <trkpt lat="48.55377" lon="7.31812">
        <ele>297</ele>
        <time>2022-06-09T18:17:49Z</time>
      </trkpt>
      <trkpt lat="48.5518" lon="7.3213">
        <ele>287</ele>
        <time>2022-06-09T18:18:40Z</time>
      </trkpt>
      <trkpt lat="48.55117" lon="7.32298">
        <ele>283</ele>
        <time>2022-06-09T18:19:03Z</time>
      </trkpt>
      <trkpt lat="48.55027" lon="7.32513">
        <ele>275</ele>
        <time>2022-06-09T18:19:33Z</time>
      </trkpt>
      <trkpt lat="48.55024" lon="7.32657">
        <ele>277</ele>
        <time>2022-06-09T18:19:50Z</time>
      </trkpt>
      <trkpt lat="48.54997" lon="7.32764">
        <ele>276</ele>
        <time>2022-06-09T18:20:03Z</time>
      </trkpt>
      <trkpt lat="48.5502" lon="7.32892">
        <ele>278</ele>
        <time>2022-06-09T18:20:19Z</time>
      </trkpt>
      <trkpt lat="48.5501" lon="7.33017">
        <ele>279</ele>
        <time>2022-06-09T18:20:33Z</time>
      </trkpt>
      <trkpt lat="48.54957" lon="7.33102">
        <ele>277</ele>
        <time>2022-06-09T18:20:47Z</time>
      </trkpt>
      <trkpt lat="48.54715" lon="7.33739">
        <ele>269</ele>
        <time>2022-06-09T18:22:14Z</time>
      </trkpt>
      <trkpt lat="48.54518" lon="7.34039">
        <ele>258</ele>
        <time>2022-06-09T18:23:03Z</time>
      </trkpt>
      <trkpt lat="48.54415" lon="7.33963">
        <ele>256</ele>
        <time>2022-06-09T18:23:24Z</time>
      </trkpt>
      <trkpt lat="48.5428" lon="7.34013">
        <ele>256</ele>
        <time>2022-06-09T18:23:49Z</time>
      </trkpt>
      <trkpt lat="48.54244" lon="7.34152">
        <ele>252</ele>
        <time>2022-06-09T18:24:06Z</time>
      </trkpt>
      <trkpt lat="48.54168" lon="7.34266">
        <ele>251</ele>
        <time>2022-06-09T18:24:25Z</time>
      </trkpt>
      <trkpt lat="48.54093" lon="7.34331">
        <ele>250</ele>
        <time>2022-06-09T18:24:41Z</time>
      </trkpt>
      <trkpt lat="48.53977" lon="7.34504">
        <ele>247</ele>
        <time>2022-06-09T18:25:10Z</time>
      </trkpt>
      <trkpt lat="48.53852" lon="7.346">
        <ele>247</ele>
        <time>2022-06-09T18:25:35Z</time>
      </trkpt>
      <trkpt lat="48.53709" lon="7.34632">
        <ele>247</ele>
        <time>2022-06-09T18:26:00Z</time>
      </trkpt>
      <trkpt lat="48.5318" lon="7.3471">
        <ele>243</ele>
        <time>2022-06-09T18:27:35Z</time>
      </trkpt>
      <trkpt lat="48.53003" lon="7.34784">
        <ele>240</ele>
        <time>2022-06-09T18:28:08Z</time>
      </trkpt>
      <trkpt lat="48.52868" lon="7.34798">
        <ele>237</ele>
        <time>2022-06-09T18:28:32Z</time>
      </trkpt>
      <trkpt lat="48.52645" lon="7.34789">
        <ele>233</ele>
        <time>2022-06-09T18:29:11Z</time>
      </trkpt>
      <trkpt lat="48.52598" lon="7.34663">
        <ele>234</ele>
        <time>2022-06-09T18:29:28Z</time>
      </trkpt>
      <trkpt lat="48.52672" lon="7.34473">
        <ele>238</ele>
        <time>2022-06-09T18:29:54Z</time>
      </trkpt>
      <trkpt lat="48.52691" lon="7.3381">
        <ele>239</ele>
        <time>2022-06-09T18:31:13Z</time>
      </trkpt>
      <trkpt lat="48.52638" lon="7.33354">
        <ele>238</ele>
        <time>2022-06-09T18:32:07Z</time>
      </trkpt>
      <trkpt lat="48.52595" lon="7.33139">
        <ele>237</ele>
        <time>2022-06-09T18:32:34Z</time>
      </trkpt>
      <trkpt lat="48.52623" lon="7.32725">
        <ele>239</ele>
        <time>2022-06-09T18:33:23Z</time>
      </trkpt>
      <trkpt lat="48.52682" lon="7.32482">
        <ele>242</ele>
        <time>2022-06-09T18:33:53Z</time>
      </trkpt>
      <trkpt lat="48.5265" lon="7.32288">
        <ele>240</ele>
        <time>2022-06-09T18:34:17Z</time>
      </trkpt>
      <trkpt lat="48.52653" lon="7.32128">
        <ele>244</ele>
        <time>2022-06-09T18:34:36Z</time>
      </trkpt>
      <trkpt lat="48.52618" lon="7.31897">
        <ele>244</ele>
        <time>2022-06-09T18:35:03Z</time>
      </trkpt>
      <trkpt lat="48.52617" lon="7.31701">
        <ele>249</ele>
        <time>2022-06-09T18:35:27Z</time>
      </trkpt>
      <trkpt lat="48.52533" lon="7.31322">
        <ele>252</ele>
        <time>2022-06-09T18:36:14Z</time>
      </trkpt>
      <trkpt lat="48.52495" lon="7.30993">
        <ele>254</ele>
        <time>2022-06-09T18:36:53Z</time>
      </trkpt>
      <trkpt lat="48.52457" lon="7.30861">
        <ele>260</ele>
        <time>2022-06-09T18:37:10Z</time>
      </trkpt>
      <trkpt lat="48.5238" lon="7.30709">
        <ele>261</ele>
        <time>2022-06-09T18:37:33Z</time>
      </trkpt>
      <trkpt lat="48.52351" lon="7.30567">
        <ele>263</ele>
        <time>2022-06-09T18:37:50Z</time>
      </trkpt>
      <trkpt lat="48.52384" lon="7.30455">
        <ele>271</ele>
        <time>2022-06-09T18:38:04Z</time>
      </trkpt>
      <trkpt lat="48.52412" lon="7.30305">
        <ele>273</ele>
        <time>2022-06-09T18:38:23Z</time>
      </trkpt>
      <trkpt lat="48.5239" lon="7.3011">
        <ele>270</ele>
        <time>2022-06-09T18:38:46Z</time>
      </trkpt>
      <trkpt lat="48.52309" lon="7.29923">
        <ele>267</ele>
        <time>2022-06-09T18:39:12Z</time>
      </trkpt>
      <trkpt lat="48.52232" lon="7.29612">
        <ele>265</ele>
        <time>2022-06-09T18:39:52Z</time>
      </trkpt>
      <trkpt lat="48.52166" lon="7.29248">
        <ele>264</ele>
        <time>2022-06-09T18:40:36Z</time>
      </trkpt>
    </trkseg>
  </trk>
</gpx>